<?xml version="1.0" encoding="UTF-8" standalone="no" ?>
<gpx xmlns="http://www.topografix.com/GPX/1/1" xmlns:xsi="http://www.w3.org/2001/XMLSchema-instance" xsi:schemaLocation="http://www.topografix.com/GPX/1/1 http://www.topografix.com/GPX/1/1/gpx.xsd" version="1.1" creator="VisuGPX - https://www.visugpx.com">
  <metadata>
    <name>LE MUY LE CATCHEOU</name>
    <desc><![CDATA[Nous partons du parking situé sur la D47 et nous traversons la route pour prendre la piste de Palayson. Au niveau du terme renversé, nous prenons le sentier à gauche vers le trou de la Jarre. Nous prenons ensuite vers la droite en direction des lotissements et du petit Coulet Redon, prenons à gauche après le petit étang pour revenir sur le Catchéou et rejoindre le parking. Lors de la randonnée nous devons passer plusieurs gués dont un a nécessité le port de sacs poubelles pour passer. Nous avons aussi profité de belles vues sur le rocher de Roquebrune et avons pu voir de beaux mimosas en fleurs.]]></desc>
  </metadata>
  <trk>
    <name><![CDATA[Tracé actuel: 09 MARS 2018 13:50]]></name>
    <trkseg>
      <trkpt lat="43.50728" lon="6.59966">
        <ele>37.15</ele>
        <time>2018-03-09T12:50:05Z</time>
      </trkpt>
      <trkpt lat="43.50726" lon="6.59966">
        <ele>37.15</ele>
        <time>2018-03-09T12:50:03Z</time>
      </trkpt>
      <trkpt lat="43.5074" lon="6.59972">
        <ele>38.59</ele>
        <time>2018-03-09T12:50:24Z</time>
      </trkpt>
      <trkpt lat="43.50741" lon="6.59972">
        <ele>37.63</ele>
        <time>2018-03-09T12:50:26Z</time>
      </trkpt>
      <trkpt lat="43.50749" lon="6.59991">
        <ele>37.15</ele>
        <time>2018-03-09T12:50:39Z</time>
      </trkpt>
      <trkpt lat="43.50747" lon="6.59993">
        <ele>37.63</ele>
        <time>2018-03-09T12:50:49Z</time>
      </trkpt>
      <trkpt lat="43.50746" lon="6.5999">
        <ele>37.15</ele>
        <time>2018-03-09T12:51:02Z</time>
      </trkpt>
      <trkpt lat="43.5075" lon="6.59988">
        <ele>37.15</ele>
        <time>2018-03-09T12:51:14Z</time>
      </trkpt>
      <trkpt lat="43.5075" lon="6.59986">
        <ele>36.67</ele>
        <time>2018-03-09T12:51:27Z</time>
      </trkpt>
      <trkpt lat="43.50748" lon="6.59985">
        <ele>37.15</ele>
        <time>2018-03-09T12:51:38Z</time>
      </trkpt>
      <trkpt lat="43.5075" lon="6.59988">
        <ele>37.15</ele>
        <time>2018-03-09T12:52:02Z</time>
      </trkpt>
      <trkpt lat="43.50749" lon="6.59984">
        <ele>37.15</ele>
        <time>2018-03-09T12:52:11Z</time>
      </trkpt>
      <trkpt lat="43.50749" lon="6.59986">
        <ele>40.51</ele>
        <time>2018-03-09T12:52:14Z</time>
      </trkpt>
      <trkpt lat="43.5075" lon="6.59984">
        <ele>43.88</ele>
        <time>2018-03-09T12:52:16Z</time>
      </trkpt>
      <trkpt lat="43.50754" lon="6.59979">
        <ele>48.68</ele>
        <time>2018-03-09T12:52:19Z</time>
      </trkpt>
      <trkpt lat="43.50752" lon="6.59981">
        <ele>53.01</ele>
        <time>2018-03-09T12:52:22Z</time>
      </trkpt>
      <trkpt lat="43.50752" lon="6.59981">
        <ele>57.34</ele>
        <time>2018-03-09T12:52:25Z</time>
      </trkpt>
      <trkpt lat="43.50751" lon="6.5998">
        <ele>60.7</ele>
        <time>2018-03-09T12:52:28Z</time>
      </trkpt>
      <trkpt lat="43.50751" lon="6.59979">
        <ele>64.07</ele>
        <time>2018-03-09T12:52:31Z</time>
      </trkpt>
      <trkpt lat="43.50745" lon="6.59976">
        <ele>67.91</ele>
        <time>2018-03-09T12:52:36Z</time>
      </trkpt>
      <trkpt lat="43.50738" lon="6.59975">
        <ele>69.83</ele>
        <time>2018-03-09T12:52:41Z</time>
      </trkpt>
      <trkpt lat="43.50729" lon="6.59973">
        <ele>71.76</ele>
        <time>2018-03-09T12:52:47Z</time>
      </trkpt>
      <trkpt lat="43.50718" lon="6.59973">
        <ele>72.72</ele>
        <time>2018-03-09T12:52:55Z</time>
      </trkpt>
      <trkpt lat="43.50715" lon="6.59972">
        <ele>73.68</ele>
        <time>2018-03-09T12:52:59Z</time>
      </trkpt>
      <trkpt lat="43.50705" lon="6.59971">
        <ele>74.16</ele>
        <time>2018-03-09T12:53:06Z</time>
      </trkpt>
      <trkpt lat="43.50693" lon="6.59975">
        <ele>75.12</ele>
        <time>2018-03-09T12:53:17Z</time>
      </trkpt>
      <trkpt lat="43.50691" lon="6.59978">
        <ele>75.6</ele>
        <time>2018-03-09T12:53:20Z</time>
      </trkpt>
      <trkpt lat="43.50687" lon="6.59982">
        <ele>76.08</ele>
        <time>2018-03-09T12:53:24Z</time>
      </trkpt>
      <trkpt lat="43.50677" lon="6.59993">
        <ele>77.04</ele>
        <time>2018-03-09T12:53:35Z</time>
      </trkpt>
      <trkpt lat="43.50671" lon="6.60004">
        <ele>78</ele>
        <time>2018-03-09T12:53:45Z</time>
      </trkpt>
      <trkpt lat="43.50668" lon="6.60009">
        <ele>78</ele>
        <time>2018-03-09T12:53:49Z</time>
      </trkpt>
      <trkpt lat="43.50666" lon="6.60014">
        <ele>78</ele>
        <time>2018-03-09T12:53:54Z</time>
      </trkpt>
      <trkpt lat="43.50658" lon="6.60028">
        <ele>79.45</ele>
        <time>2018-03-09T12:54:05Z</time>
      </trkpt>
      <trkpt lat="43.5065" lon="6.60038">
        <ele>79.93</ele>
        <time>2018-03-09T12:54:14Z</time>
      </trkpt>
      <trkpt lat="43.50647" lon="6.60046">
        <ele>80.89</ele>
        <time>2018-03-09T12:54:22Z</time>
      </trkpt>
      <trkpt lat="43.50643" lon="6.60051">
        <ele>81.37</ele>
        <time>2018-03-09T12:54:28Z</time>
      </trkpt>
      <trkpt lat="43.50634" lon="6.60067">
        <ele>82.33</ele>
        <time>2018-03-09T12:54:41Z</time>
      </trkpt>
      <trkpt lat="43.50633" lon="6.60069">
        <ele>82.33</ele>
        <time>2018-03-09T12:54:43Z</time>
      </trkpt>
      <trkpt lat="43.50627" lon="6.60078">
        <ele>83.29</ele>
        <time>2018-03-09T12:54:51Z</time>
      </trkpt>
      <trkpt lat="43.50617" lon="6.60095">
        <ele>83.77</ele>
        <time>2018-03-09T12:55:03Z</time>
      </trkpt>
      <trkpt lat="43.50616" lon="6.60097">
        <ele>84.25</ele>
        <time>2018-03-09T12:55:07Z</time>
      </trkpt>
      <trkpt lat="43.50611" lon="6.60104">
        <ele>83.77</ele>
        <time>2018-03-09T12:55:12Z</time>
      </trkpt>
      <trkpt lat="43.50603" lon="6.60117">
        <ele>84.25</ele>
        <time>2018-03-09T12:55:22Z</time>
      </trkpt>
      <trkpt lat="43.50594" lon="6.6013">
        <ele>84.73</ele>
        <time>2018-03-09T12:55:32Z</time>
      </trkpt>
      <trkpt lat="43.50584" lon="6.60143">
        <ele>85.69</ele>
        <time>2018-03-09T12:55:42Z</time>
      </trkpt>
      <trkpt lat="43.50576" lon="6.60157">
        <ele>85.21</ele>
        <time>2018-03-09T12:55:52Z</time>
      </trkpt>
      <trkpt lat="43.50572" lon="6.60163">
        <ele>85.21</ele>
        <time>2018-03-09T12:55:58Z</time>
      </trkpt>
      <trkpt lat="43.50569" lon="6.60167">
        <ele>85.21</ele>
        <time>2018-03-09T12:56:01Z</time>
      </trkpt>
      <trkpt lat="43.50564" lon="6.60179">
        <ele>85.21</ele>
        <time>2018-03-09T12:56:11Z</time>
      </trkpt>
      <trkpt lat="43.50555" lon="6.60191">
        <ele>83.77</ele>
        <time>2018-03-09T12:56:21Z</time>
      </trkpt>
      <trkpt lat="43.50549" lon="6.602">
        <ele>84.73</ele>
        <time>2018-03-09T12:56:29Z</time>
      </trkpt>
      <trkpt lat="43.50548" lon="6.60205">
        <ele>84.73</ele>
        <time>2018-03-09T12:56:34Z</time>
      </trkpt>
      <trkpt lat="43.50547" lon="6.60213">
        <ele>83.77</ele>
        <time>2018-03-09T12:56:40Z</time>
      </trkpt>
      <trkpt lat="43.50545" lon="6.60223">
        <ele>84.25</ele>
        <time>2018-03-09T12:56:46Z</time>
      </trkpt>
      <trkpt lat="43.5054" lon="6.60234">
        <ele>82.81</ele>
        <time>2018-03-09T12:56:55Z</time>
      </trkpt>
      <trkpt lat="43.50532" lon="6.60245">
        <ele>83.29</ele>
        <time>2018-03-09T12:57:04Z</time>
      </trkpt>
      <trkpt lat="43.50529" lon="6.60251">
        <ele>83.77</ele>
        <time>2018-03-09T12:57:08Z</time>
      </trkpt>
      <trkpt lat="43.50523" lon="6.60253">
        <ele>84.25</ele>
        <time>2018-03-09T12:57:18Z</time>
      </trkpt>
      <trkpt lat="43.50516" lon="6.60255">
        <ele>84.25</ele>
        <time>2018-03-09T12:57:26Z</time>
      </trkpt>
      <trkpt lat="43.50506" lon="6.6026">
        <ele>84.25</ele>
        <time>2018-03-09T12:57:37Z</time>
      </trkpt>
      <trkpt lat="43.50505" lon="6.6026">
        <ele>84.25</ele>
        <time>2018-03-09T12:57:38Z</time>
      </trkpt>
      <trkpt lat="43.50502" lon="6.60263">
        <ele>84.73</ele>
        <time>2018-03-09T12:57:42Z</time>
      </trkpt>
      <trkpt lat="43.50497" lon="6.60265">
        <ele>84.73</ele>
        <time>2018-03-09T12:57:45Z</time>
      </trkpt>
      <trkpt lat="43.50486" lon="6.60272">
        <ele>84.73</ele>
        <time>2018-03-09T12:57:54Z</time>
      </trkpt>
      <trkpt lat="43.50483" lon="6.60273">
        <ele>83.29</ele>
        <time>2018-03-09T12:57:57Z</time>
      </trkpt>
      <trkpt lat="43.50478" lon="6.60275">
        <ele>82.81</ele>
        <time>2018-03-09T12:58:01Z</time>
      </trkpt>
      <trkpt lat="43.50475" lon="6.60278">
        <ele>82.33</ele>
        <time>2018-03-09T12:58:04Z</time>
      </trkpt>
      <trkpt lat="43.50463" lon="6.60286">
        <ele>83.29</ele>
        <time>2018-03-09T12:58:14Z</time>
      </trkpt>
      <trkpt lat="43.50452" lon="6.60294">
        <ele>81.85</ele>
        <time>2018-03-09T12:58:23Z</time>
      </trkpt>
      <trkpt lat="43.50441" lon="6.603">
        <ele>80.41</ele>
        <time>2018-03-09T12:58:33Z</time>
      </trkpt>
      <trkpt lat="43.50434" lon="6.60309">
        <ele>79.93</ele>
        <time>2018-03-09T12:58:42Z</time>
      </trkpt>
      <trkpt lat="43.50431" lon="6.60312">
        <ele>79.93</ele>
        <time>2018-03-09T12:58:45Z</time>
      </trkpt>
      <trkpt lat="43.50428" lon="6.60314">
        <ele>79.45</ele>
        <time>2018-03-09T12:58:48Z</time>
      </trkpt>
      <trkpt lat="43.50426" lon="6.60314">
        <ele>78.97</ele>
        <time>2018-03-09T12:58:50Z</time>
      </trkpt>
      <trkpt lat="43.50423" lon="6.60315">
        <ele>78.97</ele>
        <time>2018-03-09T12:58:52Z</time>
      </trkpt>
      <trkpt lat="43.50408" lon="6.60322">
        <ele>78</ele>
        <time>2018-03-09T12:59:03Z</time>
      </trkpt>
      <trkpt lat="43.50407" lon="6.60325">
        <ele>77.52</ele>
        <time>2018-03-09T12:59:13Z</time>
      </trkpt>
      <trkpt lat="43.50407" lon="6.60326">
        <ele>77.52</ele>
        <time>2018-03-09T12:59:24Z</time>
      </trkpt>
      <trkpt lat="43.50406" lon="6.60325">
        <ele>77.52</ele>
        <time>2018-03-09T12:59:33Z</time>
      </trkpt>
      <trkpt lat="43.50405" lon="6.60325">
        <ele>77.52</ele>
        <time>2018-03-09T12:59:51Z</time>
      </trkpt>
      <trkpt lat="43.50403" lon="6.60326">
        <ele>77.52</ele>
        <time>2018-03-09T13:00:02Z</time>
      </trkpt>
      <trkpt lat="43.50403" lon="6.60327">
        <ele>77.52</ele>
        <time>2018-03-09T13:00:17Z</time>
      </trkpt>
      <trkpt lat="43.50403" lon="6.60327">
        <ele>77.52</ele>
        <time>2018-03-09T13:00:37Z</time>
      </trkpt>
      <trkpt lat="43.50403" lon="6.60327">
        <ele>77.04</ele>
        <time>2018-03-09T13:00:55Z</time>
      </trkpt>
      <trkpt lat="43.50403" lon="6.60328">
        <ele>77.52</ele>
        <time>2018-03-09T13:01:18Z</time>
      </trkpt>
      <trkpt lat="43.50395" lon="6.60328">
        <ele>77.04</ele>
        <time>2018-03-09T13:01:28Z</time>
      </trkpt>
      <trkpt lat="43.50385" lon="6.60333">
        <ele>76.56</ele>
        <time>2018-03-09T13:01:35Z</time>
      </trkpt>
      <trkpt lat="43.50376" lon="6.60337">
        <ele>76.56</ele>
        <time>2018-03-09T13:01:41Z</time>
      </trkpt>
      <trkpt lat="43.50372" lon="6.6034">
        <ele>76.08</ele>
        <time>2018-03-09T13:01:44Z</time>
      </trkpt>
      <trkpt lat="43.5036" lon="6.60344">
        <ele>75.12</ele>
        <time>2018-03-09T13:01:55Z</time>
      </trkpt>
      <trkpt lat="43.50351" lon="6.6035">
        <ele>75.12</ele>
        <time>2018-03-09T13:02:03Z</time>
      </trkpt>
      <trkpt lat="43.50342" lon="6.60356">
        <ele>75.12</ele>
        <time>2018-03-09T13:02:12Z</time>
      </trkpt>
      <trkpt lat="43.50331" lon="6.60362">
        <ele>75.12</ele>
        <time>2018-03-09T13:02:23Z</time>
      </trkpt>
      <trkpt lat="43.5033" lon="6.60363">
        <ele>75.12</ele>
        <time>2018-03-09T13:02:24Z</time>
      </trkpt>
      <trkpt lat="43.50326" lon="6.60365">
        <ele>75.12</ele>
        <time>2018-03-09T13:02:27Z</time>
      </trkpt>
      <trkpt lat="43.50315" lon="6.60369">
        <ele>74.64</ele>
        <time>2018-03-09T13:02:35Z</time>
      </trkpt>
      <trkpt lat="43.50302" lon="6.60378">
        <ele>74.16</ele>
        <time>2018-03-09T13:02:44Z</time>
      </trkpt>
      <trkpt lat="43.50288" lon="6.60387">
        <ele>74.16</ele>
        <time>2018-03-09T13:02:56Z</time>
      </trkpt>
      <trkpt lat="43.50282" lon="6.60389">
        <ele>74.16</ele>
        <time>2018-03-09T13:03:00Z</time>
      </trkpt>
      <trkpt lat="43.5027" lon="6.60395">
        <ele>74.16</ele>
        <time>2018-03-09T13:03:10Z</time>
      </trkpt>
      <trkpt lat="43.50259" lon="6.60401">
        <ele>74.16</ele>
        <time>2018-03-09T13:03:19Z</time>
      </trkpt>
      <trkpt lat="43.50249" lon="6.6041">
        <ele>74.64</ele>
        <time>2018-03-09T13:03:28Z</time>
      </trkpt>
      <trkpt lat="43.50242" lon="6.60413">
        <ele>74.16</ele>
        <time>2018-03-09T13:03:36Z</time>
      </trkpt>
      <trkpt lat="43.5024" lon="6.60414">
        <ele>74.64</ele>
        <time>2018-03-09T13:03:38Z</time>
      </trkpt>
      <trkpt lat="43.50234" lon="6.6042">
        <ele>74.16</ele>
        <time>2018-03-09T13:03:44Z</time>
      </trkpt>
      <trkpt lat="43.50229" lon="6.60424">
        <ele>74.16</ele>
        <time>2018-03-09T13:03:56Z</time>
      </trkpt>
      <trkpt lat="43.50229" lon="6.60424">
        <ele>74.16</ele>
        <time>2018-03-09T13:04:11Z</time>
      </trkpt>
      <trkpt lat="43.50222" lon="6.60426">
        <ele>74.16</ele>
        <time>2018-03-09T13:04:21Z</time>
      </trkpt>
      <trkpt lat="43.50215" lon="6.60425">
        <ele>73.68</ele>
        <time>2018-03-09T13:04:32Z</time>
      </trkpt>
      <trkpt lat="43.50212" lon="6.60423">
        <ele>73.68</ele>
        <time>2018-03-09T13:04:44Z</time>
      </trkpt>
      <trkpt lat="43.50213" lon="6.60425">
        <ele>73.68</ele>
        <time>2018-03-09T13:04:46Z</time>
      </trkpt>
      <trkpt lat="43.5021" lon="6.60429">
        <ele>73.68</ele>
        <time>2018-03-09T13:04:51Z</time>
      </trkpt>
      <trkpt lat="43.50207" lon="6.60431">
        <ele>73.2</ele>
        <time>2018-03-09T13:04:54Z</time>
      </trkpt>
      <trkpt lat="43.50203" lon="6.60433">
        <ele>75.12</ele>
        <time>2018-03-09T13:04:58Z</time>
      </trkpt>
      <trkpt lat="43.502" lon="6.60433">
        <ele>74.16</ele>
        <time>2018-03-09T13:05:00Z</time>
      </trkpt>
      <trkpt lat="43.50194" lon="6.60437">
        <ele>73.68</ele>
        <time>2018-03-09T13:05:11Z</time>
      </trkpt>
      <trkpt lat="43.50192" lon="6.60438">
        <ele>73.68</ele>
        <time>2018-03-09T13:05:13Z</time>
      </trkpt>
      <trkpt lat="43.50187" lon="6.60442">
        <ele>73.68</ele>
        <time>2018-03-09T13:05:18Z</time>
      </trkpt>
      <trkpt lat="43.50175" lon="6.60452">
        <ele>73.2</ele>
        <time>2018-03-09T13:05:30Z</time>
      </trkpt>
      <trkpt lat="43.50165" lon="6.6046">
        <ele>74.16</ele>
        <time>2018-03-09T13:05:38Z</time>
      </trkpt>
      <trkpt lat="43.50156" lon="6.60466">
        <ele>74.64</ele>
        <time>2018-03-09T13:05:47Z</time>
      </trkpt>
      <trkpt lat="43.50146" lon="6.60471">
        <ele>74.16</ele>
        <time>2018-03-09T13:05:57Z</time>
      </trkpt>
      <trkpt lat="43.50141" lon="6.60475">
        <ele>73.68</ele>
        <time>2018-03-09T13:06:02Z</time>
      </trkpt>
      <trkpt lat="43.50135" lon="6.60477">
        <ele>73.68</ele>
        <time>2018-03-09T13:06:14Z</time>
      </trkpt>
      <trkpt lat="43.50134" lon="6.60478">
        <ele>73.68</ele>
        <time>2018-03-09T13:06:23Z</time>
      </trkpt>
      <trkpt lat="43.50132" lon="6.6048">
        <ele>73.68</ele>
        <time>2018-03-09T13:06:27Z</time>
      </trkpt>
      <trkpt lat="43.50128" lon="6.60483">
        <ele>73.2</ele>
        <time>2018-03-09T13:06:31Z</time>
      </trkpt>
      <trkpt lat="43.50125" lon="6.60484">
        <ele>73.2</ele>
        <time>2018-03-09T13:06:34Z</time>
      </trkpt>
      <trkpt lat="43.50119" lon="6.60489">
        <ele>72.72</ele>
        <time>2018-03-09T13:06:39Z</time>
      </trkpt>
      <trkpt lat="43.50114" lon="6.6049">
        <ele>72.72</ele>
        <time>2018-03-09T13:06:44Z</time>
      </trkpt>
      <trkpt lat="43.50104" lon="6.60496">
        <ele>73.2</ele>
        <time>2018-03-09T13:06:57Z</time>
      </trkpt>
      <trkpt lat="43.50103" lon="6.60496">
        <ele>72.72</ele>
        <time>2018-03-09T13:07:05Z</time>
      </trkpt>
      <trkpt lat="43.50088" lon="6.60504">
        <ele>73.68</ele>
        <time>2018-03-09T13:07:18Z</time>
      </trkpt>
      <trkpt lat="43.50074" lon="6.6051">
        <ele>74.16</ele>
        <time>2018-03-09T13:07:29Z</time>
      </trkpt>
      <trkpt lat="43.50063" lon="6.60515">
        <ele>73.68</ele>
        <time>2018-03-09T13:07:39Z</time>
      </trkpt>
      <trkpt lat="43.50052" lon="6.60521">
        <ele>73.2</ele>
        <time>2018-03-09T13:07:49Z</time>
      </trkpt>
      <trkpt lat="43.50041" lon="6.60531">
        <ele>73.2</ele>
        <time>2018-03-09T13:08:00Z</time>
      </trkpt>
      <trkpt lat="43.50031" lon="6.60538">
        <ele>72.72</ele>
        <time>2018-03-09T13:08:10Z</time>
      </trkpt>
      <trkpt lat="43.50017" lon="6.60553">
        <ele>72.72</ele>
        <time>2018-03-09T13:08:23Z</time>
      </trkpt>
      <trkpt lat="43.50005" lon="6.60565">
        <ele>72.72</ele>
        <time>2018-03-09T13:08:35Z</time>
      </trkpt>
      <trkpt lat="43.50002" lon="6.60569">
        <ele>72.72</ele>
        <time>2018-03-09T13:08:38Z</time>
      </trkpt>
      <trkpt lat="43.49995" lon="6.60582">
        <ele>72.72</ele>
        <time>2018-03-09T13:08:49Z</time>
      </trkpt>
      <trkpt lat="43.49993" lon="6.60584">
        <ele>73.2</ele>
        <time>2018-03-09T13:08:59Z</time>
      </trkpt>
      <trkpt lat="43.49975" lon="6.60594">
        <ele>72.72</ele>
        <time>2018-03-09T13:09:13Z</time>
      </trkpt>
      <trkpt lat="43.49962" lon="6.60598">
        <ele>73.2</ele>
        <time>2018-03-09T13:09:23Z</time>
      </trkpt>
      <trkpt lat="43.49961" lon="6.60598">
        <ele>72.72</ele>
        <time>2018-03-09T13:09:25Z</time>
      </trkpt>
      <trkpt lat="43.49957" lon="6.606">
        <ele>72.72</ele>
        <time>2018-03-09T13:09:29Z</time>
      </trkpt>
      <trkpt lat="43.49954" lon="6.60602">
        <ele>72.72</ele>
        <time>2018-03-09T13:09:32Z</time>
      </trkpt>
      <trkpt lat="43.49939" lon="6.60608">
        <ele>72.72</ele>
        <time>2018-03-09T13:09:44Z</time>
      </trkpt>
      <trkpt lat="43.49926" lon="6.60611">
        <ele>73.68</ele>
        <time>2018-03-09T13:09:54Z</time>
      </trkpt>
      <trkpt lat="43.49913" lon="6.60614">
        <ele>73.68</ele>
        <time>2018-03-09T13:10:05Z</time>
      </trkpt>
      <trkpt lat="43.49912" lon="6.60614">
        <ele>73.68</ele>
        <time>2018-03-09T13:10:06Z</time>
      </trkpt>
      <trkpt lat="43.49897" lon="6.60619">
        <ele>74.64</ele>
        <time>2018-03-09T13:10:19Z</time>
      </trkpt>
      <trkpt lat="43.49886" lon="6.60626">
        <ele>75.12</ele>
        <time>2018-03-09T13:10:29Z</time>
      </trkpt>
      <trkpt lat="43.49882" lon="6.60629">
        <ele>75.12</ele>
        <time>2018-03-09T13:10:34Z</time>
      </trkpt>
      <trkpt lat="43.49882" lon="6.60639">
        <ele>75.12</ele>
        <time>2018-03-09T13:10:40Z</time>
      </trkpt>
      <trkpt lat="43.49886" lon="6.60653">
        <ele>74.64</ele>
        <time>2018-03-09T13:10:51Z</time>
      </trkpt>
      <trkpt lat="43.49884" lon="6.60655">
        <ele>74.16</ele>
        <time>2018-03-09T13:10:59Z</time>
      </trkpt>
      <trkpt lat="43.49885" lon="6.60655">
        <ele>74.64</ele>
        <time>2018-03-09T13:11:14Z</time>
      </trkpt>
      <trkpt lat="43.49885" lon="6.60656">
        <ele>74.16</ele>
        <time>2018-03-09T13:11:17Z</time>
      </trkpt>
      <trkpt lat="43.49886" lon="6.6066">
        <ele>74.64</ele>
        <time>2018-03-09T13:11:26Z</time>
      </trkpt>
      <trkpt lat="43.49886" lon="6.60661">
        <ele>74.16</ele>
        <time>2018-03-09T13:11:28Z</time>
      </trkpt>
      <trkpt lat="43.49885" lon="6.60663">
        <ele>73.68</ele>
        <time>2018-03-09T13:11:30Z</time>
      </trkpt>
      <trkpt lat="43.49879" lon="6.60682">
        <ele>73.2</ele>
        <time>2018-03-09T13:11:42Z</time>
      </trkpt>
      <trkpt lat="43.49879" lon="6.60689">
        <ele>73.2</ele>
        <time>2018-03-09T13:11:47Z</time>
      </trkpt>
      <trkpt lat="43.49874" lon="6.60706">
        <ele>72.72</ele>
        <time>2018-03-09T13:11:57Z</time>
      </trkpt>
      <trkpt lat="43.49875" lon="6.60724">
        <ele>72.24</ele>
        <time>2018-03-09T13:12:07Z</time>
      </trkpt>
      <trkpt lat="43.49876" lon="6.60728">
        <ele>71.76</ele>
        <time>2018-03-09T13:12:10Z</time>
      </trkpt>
      <trkpt lat="43.49878" lon="6.60743">
        <ele>71.76</ele>
        <time>2018-03-09T13:12:19Z</time>
      </trkpt>
      <trkpt lat="43.49877" lon="6.60762">
        <ele>70.79</ele>
        <time>2018-03-09T13:12:30Z</time>
      </trkpt>
      <trkpt lat="43.4987" lon="6.6078">
        <ele>70.79</ele>
        <time>2018-03-09T13:12:42Z</time>
      </trkpt>
      <trkpt lat="43.49868" lon="6.60797">
        <ele>70.79</ele>
        <time>2018-03-09T13:12:53Z</time>
      </trkpt>
      <trkpt lat="43.49868" lon="6.60805">
        <ele>70.79</ele>
        <time>2018-03-09T13:12:58Z</time>
      </trkpt>
      <trkpt lat="43.49866" lon="6.60819">
        <ele>69.83</ele>
        <time>2018-03-09T13:13:09Z</time>
      </trkpt>
      <trkpt lat="43.49871" lon="6.60832">
        <ele>69.35</ele>
        <time>2018-03-09T13:13:19Z</time>
      </trkpt>
      <trkpt lat="43.49873" lon="6.60834">
        <ele>68.87</ele>
        <time>2018-03-09T13:13:22Z</time>
      </trkpt>
      <trkpt lat="43.49876" lon="6.6084">
        <ele>68.87</ele>
        <time>2018-03-09T13:13:27Z</time>
      </trkpt>
      <trkpt lat="43.49877" lon="6.60847">
        <ele>68.39</ele>
        <time>2018-03-09T13:13:32Z</time>
      </trkpt>
      <trkpt lat="43.49878" lon="6.60851">
        <ele>67.91</ele>
        <time>2018-03-09T13:13:35Z</time>
      </trkpt>
      <trkpt lat="43.49878" lon="6.60868">
        <ele>68.39</ele>
        <time>2018-03-09T13:13:45Z</time>
      </trkpt>
      <trkpt lat="43.4988" lon="6.60883">
        <ele>67.91</ele>
        <time>2018-03-09T13:13:54Z</time>
      </trkpt>
      <trkpt lat="43.49885" lon="6.60897">
        <ele>67.43</ele>
        <time>2018-03-09T13:14:06Z</time>
      </trkpt>
      <trkpt lat="43.49895" lon="6.60911">
        <ele>65.99</ele>
        <time>2018-03-09T13:14:19Z</time>
      </trkpt>
      <trkpt lat="43.49898" lon="6.6093">
        <ele>64.55</ele>
        <time>2018-03-09T13:14:34Z</time>
      </trkpt>
      <trkpt lat="43.49898" lon="6.60931">
        <ele>64.55</ele>
        <time>2018-03-09T13:14:35Z</time>
      </trkpt>
      <trkpt lat="43.499" lon="6.60948">
        <ele>64.07</ele>
        <time>2018-03-09T13:14:45Z</time>
      </trkpt>
      <trkpt lat="43.49903" lon="6.60953">
        <ele>64.07</ele>
        <time>2018-03-09T13:14:49Z</time>
      </trkpt>
      <trkpt lat="43.49909" lon="6.60968">
        <ele>63.58</ele>
        <time>2018-03-09T13:15:01Z</time>
      </trkpt>
      <trkpt lat="43.49913" lon="6.60985">
        <ele>63.58</ele>
        <time>2018-03-09T13:15:13Z</time>
      </trkpt>
      <trkpt lat="43.49913" lon="6.60988">
        <ele>63.58</ele>
        <time>2018-03-09T13:15:15Z</time>
      </trkpt>
      <trkpt lat="43.49914" lon="6.61009">
        <ele>63.58</ele>
        <time>2018-03-09T13:15:28Z</time>
      </trkpt>
      <trkpt lat="43.49914" lon="6.61017">
        <ele>63.58</ele>
        <time>2018-03-09T13:15:32Z</time>
      </trkpt>
      <trkpt lat="43.49914" lon="6.61034">
        <ele>63.58</ele>
        <time>2018-03-09T13:15:43Z</time>
      </trkpt>
      <trkpt lat="43.49916" lon="6.6105">
        <ele>63.58</ele>
        <time>2018-03-09T13:15:54Z</time>
      </trkpt>
      <trkpt lat="43.49919" lon="6.61068">
        <ele>64.07</ele>
        <time>2018-03-09T13:16:06Z</time>
      </trkpt>
      <trkpt lat="43.49919" lon="6.61087">
        <ele>63.58</ele>
        <time>2018-03-09T13:16:18Z</time>
      </trkpt>
      <trkpt lat="43.49919" lon="6.61108">
        <ele>63.58</ele>
        <time>2018-03-09T13:16:31Z</time>
      </trkpt>
      <trkpt lat="43.49917" lon="6.61128">
        <ele>63.1</ele>
        <time>2018-03-09T13:16:43Z</time>
      </trkpt>
      <trkpt lat="43.49915" lon="6.61152">
        <ele>63.1</ele>
        <time>2018-03-09T13:16:58Z</time>
      </trkpt>
      <trkpt lat="43.49917" lon="6.61161">
        <ele>63.1</ele>
        <time>2018-03-09T13:17:05Z</time>
      </trkpt>
      <trkpt lat="43.49917" lon="6.61166">
        <ele>62.62</ele>
        <time>2018-03-09T13:17:08Z</time>
      </trkpt>
      <trkpt lat="43.49917" lon="6.61174">
        <ele>62.62</ele>
        <time>2018-03-09T13:17:12Z</time>
      </trkpt>
      <trkpt lat="43.49904" lon="6.61191">
        <ele>61.18</ele>
        <time>2018-03-09T13:17:25Z</time>
      </trkpt>
      <trkpt lat="43.49897" lon="6.612">
        <ele>59.26</ele>
        <time>2018-03-09T13:17:35Z</time>
      </trkpt>
      <trkpt lat="43.49883" lon="6.61217">
        <ele>56.86</ele>
        <time>2018-03-09T13:17:51Z</time>
      </trkpt>
      <trkpt lat="43.49882" lon="6.61219">
        <ele>56.86</ele>
        <time>2018-03-09T13:17:53Z</time>
      </trkpt>
      <trkpt lat="43.49878" lon="6.61229">
        <ele>53.01</ele>
        <time>2018-03-09T13:18:00Z</time>
      </trkpt>
      <trkpt lat="43.49878" lon="6.6123">
        <ele>60.7</ele>
        <time>2018-03-09T13:18:01Z</time>
      </trkpt>
      <trkpt lat="43.49877" lon="6.61231">
        <ele>56.37</ele>
        <time>2018-03-09T13:18:02Z</time>
      </trkpt>
      <trkpt lat="43.49874" lon="6.61235">
        <ele>55.41</ele>
        <time>2018-03-09T13:18:06Z</time>
      </trkpt>
      <trkpt lat="43.4987" lon="6.61238">
        <ele>55.41</ele>
        <time>2018-03-09T13:18:15Z</time>
      </trkpt>
      <trkpt lat="43.49872" lon="6.61238">
        <ele>55.89</ele>
        <time>2018-03-09T13:18:34Z</time>
      </trkpt>
      <trkpt lat="43.49871" lon="6.6124">
        <ele>55.41</ele>
        <time>2018-03-09T13:18:48Z</time>
      </trkpt>
      <trkpt lat="43.49873" lon="6.61238">
        <ele>55.41</ele>
        <time>2018-03-09T13:18:53Z</time>
      </trkpt>
      <trkpt lat="43.49869" lon="6.61237">
        <ele>55.41</ele>
        <time>2018-03-09T13:18:58Z</time>
      </trkpt>
      <trkpt lat="43.49865" lon="6.61236">
        <ele>56.37</ele>
        <time>2018-03-09T13:19:03Z</time>
      </trkpt>
      <trkpt lat="43.49863" lon="6.61236">
        <ele>56.86</ele>
        <time>2018-03-09T13:19:06Z</time>
      </trkpt>
      <trkpt lat="43.4986" lon="6.61238">
        <ele>57.34</ele>
        <time>2018-03-09T13:19:10Z</time>
      </trkpt>
      <trkpt lat="43.49851" lon="6.61236">
        <ele>57.82</ele>
        <time>2018-03-09T13:19:18Z</time>
      </trkpt>
      <trkpt lat="43.49845" lon="6.61236">
        <ele>58.3</ele>
        <time>2018-03-09T13:19:23Z</time>
      </trkpt>
      <trkpt lat="43.49836" lon="6.61245">
        <ele>57.82</ele>
        <time>2018-03-09T13:19:33Z</time>
      </trkpt>
      <trkpt lat="43.49835" lon="6.61247">
        <ele>57.82</ele>
        <time>2018-03-09T13:19:34Z</time>
      </trkpt>
      <trkpt lat="43.4983" lon="6.61259">
        <ele>56.37</ele>
        <time>2018-03-09T13:19:45Z</time>
      </trkpt>
      <trkpt lat="43.49823" lon="6.61273">
        <ele>55.89</ele>
        <time>2018-03-09T13:19:58Z</time>
      </trkpt>
      <trkpt lat="43.49821" lon="6.61279">
        <ele>55.89</ele>
        <time>2018-03-09T13:20:03Z</time>
      </trkpt>
      <trkpt lat="43.49812" lon="6.61292">
        <ele>55.41</ele>
        <time>2018-03-09T13:20:15Z</time>
      </trkpt>
      <trkpt lat="43.49799" lon="6.61297">
        <ele>55.41</ele>
        <time>2018-03-09T13:20:29Z</time>
      </trkpt>
      <trkpt lat="43.49795" lon="6.61295">
        <ele>55.89</ele>
        <time>2018-03-09T13:20:33Z</time>
      </trkpt>
      <trkpt lat="43.49792" lon="6.61296">
        <ele>55.89</ele>
        <time>2018-03-09T13:20:36Z</time>
      </trkpt>
      <trkpt lat="43.49778" lon="6.6131">
        <ele>54.45</ele>
        <time>2018-03-09T13:20:51Z</time>
      </trkpt>
      <trkpt lat="43.49777" lon="6.6131">
        <ele>55.41</ele>
        <time>2018-03-09T13:20:53Z</time>
      </trkpt>
      <trkpt lat="43.49775" lon="6.61311">
        <ele>54.93</ele>
        <time>2018-03-09T13:20:55Z</time>
      </trkpt>
      <trkpt lat="43.49768" lon="6.61314">
        <ele>54.93</ele>
        <time>2018-03-09T13:21:02Z</time>
      </trkpt>
      <trkpt lat="43.49765" lon="6.61323">
        <ele>54.45</ele>
        <time>2018-03-09T13:21:08Z</time>
      </trkpt>
      <trkpt lat="43.49765" lon="6.61342">
        <ele>54.93</ele>
        <time>2018-03-09T13:21:19Z</time>
      </trkpt>
      <trkpt lat="43.49765" lon="6.61344">
        <ele>54.93</ele>
        <time>2018-03-09T13:21:21Z</time>
      </trkpt>
      <trkpt lat="43.49768" lon="6.61356">
        <ele>57.34</ele>
        <time>2018-03-09T13:21:33Z</time>
      </trkpt>
      <trkpt lat="43.49769" lon="6.61369">
        <ele>59.26</ele>
        <time>2018-03-09T13:21:45Z</time>
      </trkpt>
      <trkpt lat="43.49772" lon="6.61376">
        <ele>58.3</ele>
        <time>2018-03-09T13:21:50Z</time>
      </trkpt>
      <trkpt lat="43.4977" lon="6.614">
        <ele>57.82</ele>
        <time>2018-03-09T13:22:04Z</time>
      </trkpt>
      <trkpt lat="43.49771" lon="6.61403">
        <ele>58.3</ele>
        <time>2018-03-09T13:22:06Z</time>
      </trkpt>
      <trkpt lat="43.49771" lon="6.61407">
        <ele>57.82</ele>
        <time>2018-03-09T13:22:08Z</time>
      </trkpt>
      <trkpt lat="43.49769" lon="6.61427">
        <ele>56.86</ele>
        <time>2018-03-09T13:22:22Z</time>
      </trkpt>
      <trkpt lat="43.49764" lon="6.61441">
        <ele>55.41</ele>
        <time>2018-03-09T13:22:33Z</time>
      </trkpt>
      <trkpt lat="43.49763" lon="6.61451">
        <ele>54.45</ele>
        <time>2018-03-09T13:22:40Z</time>
      </trkpt>
      <trkpt lat="43.49758" lon="6.61472">
        <ele>53.97</ele>
        <time>2018-03-09T13:22:54Z</time>
      </trkpt>
      <trkpt lat="43.49753" lon="6.61489">
        <ele>53.49</ele>
        <time>2018-03-09T13:23:07Z</time>
      </trkpt>
      <trkpt lat="43.49752" lon="6.61492">
        <ele>52.05</ele>
        <time>2018-03-09T13:23:15Z</time>
      </trkpt>
      <trkpt lat="43.4975" lon="6.61505">
        <ele>51.09</ele>
        <time>2018-03-09T13:23:25Z</time>
      </trkpt>
      <trkpt lat="43.4975" lon="6.61513">
        <ele>51.09</ele>
        <time>2018-03-09T13:23:30Z</time>
      </trkpt>
      <trkpt lat="43.49747" lon="6.61522">
        <ele>45.32</ele>
        <time>2018-03-09T13:23:36Z</time>
      </trkpt>
      <trkpt lat="43.49746" lon="6.61524">
        <ele>56.37</ele>
        <time>2018-03-09T13:23:37Z</time>
      </trkpt>
      <trkpt lat="43.49745" lon="6.61526">
        <ele>51.09</ele>
        <time>2018-03-09T13:23:38Z</time>
      </trkpt>
      <trkpt lat="43.49743" lon="6.61536">
        <ele>51.09</ele>
        <time>2018-03-09T13:23:44Z</time>
      </trkpt>
      <trkpt lat="43.4974" lon="6.6155">
        <ele>52.05</ele>
        <time>2018-03-09T13:23:55Z</time>
      </trkpt>
      <trkpt lat="43.4974" lon="6.61563">
        <ele>52.53</ele>
        <time>2018-03-09T13:24:03Z</time>
      </trkpt>
      <trkpt lat="43.49738" lon="6.61579">
        <ele>53.01</ele>
        <time>2018-03-09T13:24:14Z</time>
      </trkpt>
      <trkpt lat="43.49736" lon="6.61586">
        <ele>53.49</ele>
        <time>2018-03-09T13:24:18Z</time>
      </trkpt>
      <trkpt lat="43.49729" lon="6.61599">
        <ele>53.97</ele>
        <time>2018-03-09T13:24:28Z</time>
      </trkpt>
      <trkpt lat="43.49722" lon="6.61611">
        <ele>53.49</ele>
        <time>2018-03-09T13:24:37Z</time>
      </trkpt>
      <trkpt lat="43.49721" lon="6.61613">
        <ele>53.49</ele>
        <time>2018-03-09T13:24:39Z</time>
      </trkpt>
      <trkpt lat="43.4972" lon="6.61618">
        <ele>53.49</ele>
        <time>2018-03-09T13:24:42Z</time>
      </trkpt>
      <trkpt lat="43.49714" lon="6.6163">
        <ele>53.01</ele>
        <time>2018-03-09T13:24:51Z</time>
      </trkpt>
      <trkpt lat="43.49712" lon="6.61633">
        <ele>53.01</ele>
        <time>2018-03-09T13:24:53Z</time>
      </trkpt>
      <trkpt lat="43.49711" lon="6.61637">
        <ele>53.49</ele>
        <time>2018-03-09T13:24:56Z</time>
      </trkpt>
      <trkpt lat="43.49707" lon="6.61641">
        <ele>50.13</ele>
        <time>2018-03-09T13:25:00Z</time>
      </trkpt>
      <trkpt lat="43.49707" lon="6.61643">
        <ele>54.45</ele>
        <time>2018-03-09T13:25:01Z</time>
      </trkpt>
      <trkpt lat="43.49705" lon="6.61645">
        <ele>53.49</ele>
        <time>2018-03-09T13:25:04Z</time>
      </trkpt>
      <trkpt lat="43.49702" lon="6.61651">
        <ele>53.49</ele>
        <time>2018-03-09T13:25:18Z</time>
      </trkpt>
      <trkpt lat="43.49701" lon="6.61658">
        <ele>53.01</ele>
        <time>2018-03-09T13:25:23Z</time>
      </trkpt>
      <trkpt lat="43.49698" lon="6.61667">
        <ele>52.05</ele>
        <time>2018-03-09T13:25:29Z</time>
      </trkpt>
      <trkpt lat="43.49688" lon="6.61687">
        <ele>53.49</ele>
        <time>2018-03-09T13:25:43Z</time>
      </trkpt>
      <trkpt lat="43.49683" lon="6.61701">
        <ele>53.97</ele>
        <time>2018-03-09T13:25:54Z</time>
      </trkpt>
      <trkpt lat="43.49679" lon="6.61708">
        <ele>53.97</ele>
        <time>2018-03-09T13:26:05Z</time>
      </trkpt>
      <trkpt lat="43.49679" lon="6.61711">
        <ele>54.45</ele>
        <time>2018-03-09T13:26:29Z</time>
      </trkpt>
      <trkpt lat="43.49679" lon="6.61711">
        <ele>53.97</ele>
        <time>2018-03-09T13:26:31Z</time>
      </trkpt>
      <trkpt lat="43.49676" lon="6.61722">
        <ele>53.49</ele>
        <time>2018-03-09T13:26:42Z</time>
      </trkpt>
      <trkpt lat="43.49673" lon="6.61739">
        <ele>53.01</ele>
        <time>2018-03-09T13:26:54Z</time>
      </trkpt>
      <trkpt lat="43.49668" lon="6.6176">
        <ele>53.01</ele>
        <time>2018-03-09T13:27:07Z</time>
      </trkpt>
      <trkpt lat="43.49661" lon="6.61779">
        <ele>51.57</ele>
        <time>2018-03-09T13:27:20Z</time>
      </trkpt>
      <trkpt lat="43.49661" lon="6.61781">
        <ele>51.57</ele>
        <time>2018-03-09T13:27:21Z</time>
      </trkpt>
      <trkpt lat="43.49659" lon="6.61798">
        <ele>50.61</ele>
        <time>2018-03-09T13:27:31Z</time>
      </trkpt>
      <trkpt lat="43.49652" lon="6.61807">
        <ele>50.61</ele>
        <time>2018-03-09T13:27:40Z</time>
      </trkpt>
      <trkpt lat="43.49637" lon="6.61811">
        <ele>50.61</ele>
        <time>2018-03-09T13:27:54Z</time>
      </trkpt>
      <trkpt lat="43.4963" lon="6.61823">
        <ele>50.61</ele>
        <time>2018-03-09T13:28:01Z</time>
      </trkpt>
      <trkpt lat="43.49627" lon="6.61827">
        <ele>50.61</ele>
        <time>2018-03-09T13:28:04Z</time>
      </trkpt>
      <trkpt lat="43.49624" lon="6.6183">
        <ele>50.61</ele>
        <time>2018-03-09T13:28:07Z</time>
      </trkpt>
      <trkpt lat="43.49622" lon="6.6183">
        <ele>50.61</ele>
        <time>2018-03-09T13:28:09Z</time>
      </trkpt>
      <trkpt lat="43.49615" lon="6.61844">
        <ele>51.09</ele>
        <time>2018-03-09T13:28:19Z</time>
      </trkpt>
      <trkpt lat="43.49614" lon="6.61846">
        <ele>51.09</ele>
        <time>2018-03-09T13:28:21Z</time>
      </trkpt>
      <trkpt lat="43.4961" lon="6.61864">
        <ele>51.09</ele>
        <time>2018-03-09T13:28:33Z</time>
      </trkpt>
      <trkpt lat="43.49608" lon="6.61866">
        <ele>51.57</ele>
        <time>2018-03-09T13:28:36Z</time>
      </trkpt>
      <trkpt lat="43.49609" lon="6.61876">
        <ele>50.61</ele>
        <time>2018-03-09T13:28:44Z</time>
      </trkpt>
      <trkpt lat="43.4961" lon="6.61887">
        <ele>50.61</ele>
        <time>2018-03-09T13:28:50Z</time>
      </trkpt>
      <trkpt lat="43.49611" lon="6.61894">
        <ele>51.57</ele>
        <time>2018-03-09T13:28:55Z</time>
      </trkpt>
      <trkpt lat="43.49611" lon="6.61906">
        <ele>51.09</ele>
        <time>2018-03-09T13:29:05Z</time>
      </trkpt>
      <trkpt lat="43.49611" lon="6.61907">
        <ele>51.09</ele>
        <time>2018-03-09T13:29:06Z</time>
      </trkpt>
      <trkpt lat="43.49609" lon="6.61913">
        <ele>51.57</ele>
        <time>2018-03-09T13:29:10Z</time>
      </trkpt>
      <trkpt lat="43.49607" lon="6.6194">
        <ele>52.05</ele>
        <time>2018-03-09T13:29:23Z</time>
      </trkpt>
      <trkpt lat="43.49606" lon="6.61944">
        <ele>52.53</ele>
        <time>2018-03-09T13:29:25Z</time>
      </trkpt>
      <trkpt lat="43.49606" lon="6.61962">
        <ele>53.49</ele>
        <time>2018-03-09T13:29:36Z</time>
      </trkpt>
      <trkpt lat="43.49605" lon="6.61966">
        <ele>53.97</ele>
        <time>2018-03-09T13:29:39Z</time>
      </trkpt>
      <trkpt lat="43.49606" lon="6.61969">
        <ele>53.97</ele>
        <time>2018-03-09T13:29:41Z</time>
      </trkpt>
      <trkpt lat="43.49605" lon="6.61976">
        <ele>53.97</ele>
        <time>2018-03-09T13:29:45Z</time>
      </trkpt>
      <trkpt lat="43.49602" lon="6.61995">
        <ele>54.45</ele>
        <time>2018-03-09T13:29:58Z</time>
      </trkpt>
      <trkpt lat="43.49599" lon="6.62007">
        <ele>54.45</ele>
        <time>2018-03-09T13:30:09Z</time>
      </trkpt>
      <trkpt lat="43.49601" lon="6.62007">
        <ele>54.45</ele>
        <time>2018-03-09T13:30:17Z</time>
      </trkpt>
      <trkpt lat="43.49603" lon="6.62008">
        <ele>54.45</ele>
        <time>2018-03-09T13:30:22Z</time>
      </trkpt>
      <trkpt lat="43.49606" lon="6.6201">
        <ele>54.45</ele>
        <time>2018-03-09T13:30:25Z</time>
      </trkpt>
      <trkpt lat="43.49612" lon="6.6201">
        <ele>54.45</ele>
        <time>2018-03-09T13:30:35Z</time>
      </trkpt>
      <trkpt lat="43.49611" lon="6.62011">
        <ele>53.97</ele>
        <time>2018-03-09T13:30:48Z</time>
      </trkpt>
      <trkpt lat="43.49611" lon="6.62011">
        <ele>54.45</ele>
        <time>2018-03-09T13:31:01Z</time>
      </trkpt>
      <trkpt lat="43.49611" lon="6.62011">
        <ele>53.49</ele>
        <time>2018-03-09T13:31:10Z</time>
      </trkpt>
      <trkpt lat="43.49615" lon="6.62012">
        <ele>53.97</ele>
        <time>2018-03-09T13:31:15Z</time>
      </trkpt>
      <trkpt lat="43.49617" lon="6.62014">
        <ele>53.97</ele>
        <time>2018-03-09T13:31:18Z</time>
      </trkpt>
      <trkpt lat="43.49629" lon="6.62019">
        <ele>53.49</ele>
        <time>2018-03-09T13:31:29Z</time>
      </trkpt>
      <trkpt lat="43.4964" lon="6.62018">
        <ele>53.01</ele>
        <time>2018-03-09T13:31:38Z</time>
      </trkpt>
      <trkpt lat="43.49653" lon="6.62016">
        <ele>52.05</ele>
        <time>2018-03-09T13:31:49Z</time>
      </trkpt>
      <trkpt lat="43.49665" lon="6.62011">
        <ele>51.57</ele>
        <time>2018-03-09T13:31:59Z</time>
      </trkpt>
      <trkpt lat="43.49666" lon="6.6201">
        <ele>51.57</ele>
        <time>2018-03-09T13:32:00Z</time>
      </trkpt>
      <trkpt lat="43.49673" lon="6.62004">
        <ele>51.57</ele>
        <time>2018-03-09T13:32:08Z</time>
      </trkpt>
      <trkpt lat="43.49674" lon="6.62">
        <ele>51.09</ele>
        <time>2018-03-09T13:32:11Z</time>
      </trkpt>
      <trkpt lat="43.49679" lon="6.61993">
        <ele>50.61</ele>
        <time>2018-03-09T13:32:16Z</time>
      </trkpt>
      <trkpt lat="43.49682" lon="6.61991">
        <ele>50.13</ele>
        <time>2018-03-09T13:32:19Z</time>
      </trkpt>
      <trkpt lat="43.49685" lon="6.61987">
        <ele>49.65</ele>
        <time>2018-03-09T13:32:22Z</time>
      </trkpt>
      <trkpt lat="43.49692" lon="6.6198">
        <ele>49.16</ele>
        <time>2018-03-09T13:32:30Z</time>
      </trkpt>
      <trkpt lat="43.49701" lon="6.61978">
        <ele>48.2</ele>
        <time>2018-03-09T13:32:39Z</time>
      </trkpt>
      <trkpt lat="43.49704" lon="6.61978">
        <ele>48.2</ele>
        <time>2018-03-09T13:32:42Z</time>
      </trkpt>
      <trkpt lat="43.49706" lon="6.61978">
        <ele>47.72</ele>
        <time>2018-03-09T13:32:44Z</time>
      </trkpt>
      <trkpt lat="43.49716" lon="6.61981">
        <ele>47.24</ele>
        <time>2018-03-09T13:32:53Z</time>
      </trkpt>
      <trkpt lat="43.49726" lon="6.61985">
        <ele>46.76</ele>
        <time>2018-03-09T13:33:03Z</time>
      </trkpt>
      <trkpt lat="43.49737" lon="6.61986">
        <ele>45.8</ele>
        <time>2018-03-09T13:33:14Z</time>
      </trkpt>
      <trkpt lat="43.4974" lon="6.61984">
        <ele>45.32</ele>
        <time>2018-03-09T13:33:24Z</time>
      </trkpt>
      <trkpt lat="43.4974" lon="6.61982">
        <ele>45.32</ele>
        <time>2018-03-09T13:33:41Z</time>
      </trkpt>
      <trkpt lat="43.49743" lon="6.61982">
        <ele>45.32</ele>
        <time>2018-03-09T13:34:05Z</time>
      </trkpt>
      <trkpt lat="43.49749" lon="6.61985">
        <ele>45.32</ele>
        <time>2018-03-09T13:34:15Z</time>
      </trkpt>
      <trkpt lat="43.49761" lon="6.61991">
        <ele>45.32</ele>
        <time>2018-03-09T13:34:29Z</time>
      </trkpt>
      <trkpt lat="43.49767" lon="6.61996">
        <ele>43.4</ele>
        <time>2018-03-09T13:34:41Z</time>
      </trkpt>
      <trkpt lat="43.49768" lon="6.61997">
        <ele>46.28</ele>
        <time>2018-03-09T13:34:42Z</time>
      </trkpt>
      <trkpt lat="43.49772" lon="6.62">
        <ele>40.99</ele>
        <time>2018-03-09T13:34:53Z</time>
      </trkpt>
      <trkpt lat="43.49773" lon="6.62">
        <ele>47.72</ele>
        <time>2018-03-09T13:34:54Z</time>
      </trkpt>
      <trkpt lat="43.49775" lon="6.62001">
        <ele>42.44</ele>
        <time>2018-03-09T13:34:56Z</time>
      </trkpt>
      <trkpt lat="43.49776" lon="6.62002">
        <ele>46.76</ele>
        <time>2018-03-09T13:34:57Z</time>
      </trkpt>
      <trkpt lat="43.49791" lon="6.62011">
        <ele>44.36</ele>
        <time>2018-03-09T13:35:10Z</time>
      </trkpt>
      <trkpt lat="43.49799" lon="6.62024">
        <ele>44.36</ele>
        <time>2018-03-09T13:35:20Z</time>
      </trkpt>
      <trkpt lat="43.498" lon="6.62027">
        <ele>43.88</ele>
        <time>2018-03-09T13:35:22Z</time>
      </trkpt>
      <trkpt lat="43.49805" lon="6.62043">
        <ele>43.88</ele>
        <time>2018-03-09T13:35:34Z</time>
      </trkpt>
      <trkpt lat="43.49808" lon="6.62057">
        <ele>43.4</ele>
        <time>2018-03-09T13:35:44Z</time>
      </trkpt>
      <trkpt lat="43.49808" lon="6.62061">
        <ele>42.92</ele>
        <time>2018-03-09T13:35:47Z</time>
      </trkpt>
      <trkpt lat="43.49804" lon="6.62077">
        <ele>42.92</ele>
        <time>2018-03-09T13:35:59Z</time>
      </trkpt>
      <trkpt lat="43.49799" lon="6.62081">
        <ele>42.44</ele>
        <time>2018-03-09T13:36:06Z</time>
      </trkpt>
      <trkpt lat="43.49795" lon="6.62084">
        <ele>42.44</ele>
        <time>2018-03-09T13:36:10Z</time>
      </trkpt>
      <trkpt lat="43.49784" lon="6.62093">
        <ele>41.95</ele>
        <time>2018-03-09T13:36:21Z</time>
      </trkpt>
      <trkpt lat="43.49775" lon="6.62098">
        <ele>41.47</ele>
        <time>2018-03-09T13:36:31Z</time>
      </trkpt>
      <trkpt lat="43.49774" lon="6.62098">
        <ele>41.47</ele>
        <time>2018-03-09T13:36:32Z</time>
      </trkpt>
      <trkpt lat="43.49769" lon="6.62102">
        <ele>41.47</ele>
        <time>2018-03-09T13:36:39Z</time>
      </trkpt>
      <trkpt lat="43.49761" lon="6.6211">
        <ele>41.47</ele>
        <time>2018-03-09T13:36:47Z</time>
      </trkpt>
      <trkpt lat="43.49759" lon="6.62111">
        <ele>40.99</ele>
        <time>2018-03-09T13:36:48Z</time>
      </trkpt>
      <trkpt lat="43.49748" lon="6.62123">
        <ele>40.51</ele>
        <time>2018-03-09T13:37:00Z</time>
      </trkpt>
      <trkpt lat="43.49744" lon="6.62131">
        <ele>40.51</ele>
        <time>2018-03-09T13:37:06Z</time>
      </trkpt>
      <trkpt lat="43.4974" lon="6.62143">
        <ele>40.51</ele>
        <time>2018-03-09T13:37:15Z</time>
      </trkpt>
      <trkpt lat="43.49738" lon="6.62146">
        <ele>40.03</ele>
        <time>2018-03-09T13:37:17Z</time>
      </trkpt>
      <trkpt lat="43.49727" lon="6.62158">
        <ele>40.03</ele>
        <time>2018-03-09T13:37:28Z</time>
      </trkpt>
      <trkpt lat="43.49721" lon="6.62167">
        <ele>39.55</ele>
        <time>2018-03-09T13:37:37Z</time>
      </trkpt>
      <trkpt lat="43.4972" lon="6.62169">
        <ele>39.55</ele>
        <time>2018-03-09T13:37:38Z</time>
      </trkpt>
      <trkpt lat="43.49718" lon="6.62176">
        <ele>39.55</ele>
        <time>2018-03-09T13:37:41Z</time>
      </trkpt>
      <trkpt lat="43.49717" lon="6.62191">
        <ele>39.55</ele>
        <time>2018-03-09T13:37:52Z</time>
      </trkpt>
      <trkpt lat="43.49712" lon="6.62207">
        <ele>39.55</ele>
        <time>2018-03-09T13:38:01Z</time>
      </trkpt>
      <trkpt lat="43.49707" lon="6.62217">
        <ele>39.07</ele>
        <time>2018-03-09T13:38:08Z</time>
      </trkpt>
      <trkpt lat="43.49701" lon="6.62226">
        <ele>38.11</ele>
        <time>2018-03-09T13:38:18Z</time>
      </trkpt>
      <trkpt lat="43.49697" lon="6.62239">
        <ele>38.11</ele>
        <time>2018-03-09T13:38:25Z</time>
      </trkpt>
      <trkpt lat="43.49693" lon="6.62259">
        <ele>37.15</ele>
        <time>2018-03-09T13:38:34Z</time>
      </trkpt>
      <trkpt lat="43.49695" lon="6.62272">
        <ele>37.15</ele>
        <time>2018-03-09T13:38:41Z</time>
      </trkpt>
      <trkpt lat="43.49694" lon="6.62288">
        <ele>36.19</ele>
        <time>2018-03-09T13:38:51Z</time>
      </trkpt>
      <trkpt lat="43.49693" lon="6.6229">
        <ele>36.19</ele>
        <time>2018-03-09T13:38:53Z</time>
      </trkpt>
      <trkpt lat="43.49689" lon="6.623">
        <ele>36.19</ele>
        <time>2018-03-09T13:38:59Z</time>
      </trkpt>
      <trkpt lat="43.49686" lon="6.62305">
        <ele>36.19</ele>
        <time>2018-03-09T13:39:02Z</time>
      </trkpt>
      <trkpt lat="43.49681" lon="6.62313">
        <ele>36.19</ele>
        <time>2018-03-09T13:39:08Z</time>
      </trkpt>
      <trkpt lat="43.49673" lon="6.62327">
        <ele>36.19</ele>
        <time>2018-03-09T13:39:18Z</time>
      </trkpt>
      <trkpt lat="43.49665" lon="6.62345">
        <ele>35.71</ele>
        <time>2018-03-09T13:39:28Z</time>
      </trkpt>
      <trkpt lat="43.49664" lon="6.62347">
        <ele>35.71</ele>
        <time>2018-03-09T13:39:29Z</time>
      </trkpt>
      <trkpt lat="43.49662" lon="6.62353">
        <ele>35.71</ele>
        <time>2018-03-09T13:39:33Z</time>
      </trkpt>
      <trkpt lat="43.49654" lon="6.62367">
        <ele>35.71</ele>
        <time>2018-03-09T13:39:42Z</time>
      </trkpt>
      <trkpt lat="43.49649" lon="6.62375">
        <ele>35.23</ele>
        <time>2018-03-09T13:39:49Z</time>
      </trkpt>
      <trkpt lat="43.49642" lon="6.62386">
        <ele>34.74</ele>
        <time>2018-03-09T13:39:57Z</time>
      </trkpt>
      <trkpt lat="43.49631" lon="6.62397">
        <ele>31.38</ele>
        <time>2018-03-09T13:40:07Z</time>
      </trkpt>
      <trkpt lat="43.49629" lon="6.624">
        <ele>35.23</ele>
        <time>2018-03-09T13:40:09Z</time>
      </trkpt>
      <trkpt lat="43.49622" lon="6.62409">
        <ele>34.26</ele>
        <time>2018-03-09T13:40:16Z</time>
      </trkpt>
      <trkpt lat="43.49618" lon="6.62411">
        <ele>34.26</ele>
        <time>2018-03-09T13:40:19Z</time>
      </trkpt>
      <trkpt lat="43.49616" lon="6.62414">
        <ele>34.26</ele>
        <time>2018-03-09T13:40:21Z</time>
      </trkpt>
      <trkpt lat="43.49604" lon="6.62421">
        <ele>33.78</ele>
        <time>2018-03-09T13:40:31Z</time>
      </trkpt>
      <trkpt lat="43.496" lon="6.62425">
        <ele>33.78</ele>
        <time>2018-03-09T13:40:35Z</time>
      </trkpt>
      <trkpt lat="43.49589" lon="6.62439">
        <ele>33.3</ele>
        <time>2018-03-09T13:40:46Z</time>
      </trkpt>
      <trkpt lat="43.49583" lon="6.62451">
        <ele>32.82</ele>
        <time>2018-03-09T13:40:55Z</time>
      </trkpt>
      <trkpt lat="43.49577" lon="6.62461">
        <ele>32.82</ele>
        <time>2018-03-09T13:41:02Z</time>
      </trkpt>
      <trkpt lat="43.49573" lon="6.62466">
        <ele>32.34</ele>
        <time>2018-03-09T13:41:05Z</time>
      </trkpt>
      <trkpt lat="43.49569" lon="6.62469">
        <ele>33.3</ele>
        <time>2018-03-09T13:41:08Z</time>
      </trkpt>
      <trkpt lat="43.49568" lon="6.62474">
        <ele>32.82</ele>
        <time>2018-03-09T13:41:11Z</time>
      </trkpt>
      <trkpt lat="43.49567" lon="6.62479">
        <ele>32.34</ele>
        <time>2018-03-09T13:41:14Z</time>
      </trkpt>
      <trkpt lat="43.49565" lon="6.62483">
        <ele>28.02</ele>
        <time>2018-03-09T13:41:17Z</time>
      </trkpt>
      <trkpt lat="43.49564" lon="6.62484">
        <ele>36.19</ele>
        <time>2018-03-09T13:41:18Z</time>
      </trkpt>
      <trkpt lat="43.49563" lon="6.62486">
        <ele>33.3</ele>
        <time>2018-03-09T13:41:19Z</time>
      </trkpt>
      <trkpt lat="43.49556" lon="6.62496">
        <ele>32.82</ele>
        <time>2018-03-09T13:41:27Z</time>
      </trkpt>
      <trkpt lat="43.49555" lon="6.62497">
        <ele>32.82</ele>
        <time>2018-03-09T13:41:28Z</time>
      </trkpt>
      <trkpt lat="43.49545" lon="6.62509">
        <ele>32.34</ele>
        <time>2018-03-09T13:41:39Z</time>
      </trkpt>
      <trkpt lat="43.49542" lon="6.62515">
        <ele>31.86</ele>
        <time>2018-03-09T13:41:43Z</time>
      </trkpt>
      <trkpt lat="43.49531" lon="6.62531">
        <ele>31.38</ele>
        <time>2018-03-09T13:41:55Z</time>
      </trkpt>
      <trkpt lat="43.49525" lon="6.62542">
        <ele>31.38</ele>
        <time>2018-03-09T13:42:04Z</time>
      </trkpt>
      <trkpt lat="43.49523" lon="6.62546">
        <ele>31.38</ele>
        <time>2018-03-09T13:42:07Z</time>
      </trkpt>
      <trkpt lat="43.49521" lon="6.62553">
        <ele>30.9</ele>
        <time>2018-03-09T13:42:12Z</time>
      </trkpt>
      <trkpt lat="43.49516" lon="6.62565">
        <ele>30.9</ele>
        <time>2018-03-09T13:42:20Z</time>
      </trkpt>
      <trkpt lat="43.49514" lon="6.62567">
        <ele>30.9</ele>
        <time>2018-03-09T13:42:22Z</time>
      </trkpt>
      <trkpt lat="43.49504" lon="6.62579">
        <ele>31.38</ele>
        <time>2018-03-09T13:42:31Z</time>
      </trkpt>
      <trkpt lat="43.495" lon="6.62584">
        <ele>31.38</ele>
        <time>2018-03-09T13:42:35Z</time>
      </trkpt>
      <trkpt lat="43.4949" lon="6.62596">
        <ele>31.38</ele>
        <time>2018-03-09T13:42:44Z</time>
      </trkpt>
      <trkpt lat="43.49488" lon="6.626">
        <ele>30.9</ele>
        <time>2018-03-09T13:42:47Z</time>
      </trkpt>
      <trkpt lat="43.49484" lon="6.62606">
        <ele>30.9</ele>
        <time>2018-03-09T13:42:58Z</time>
      </trkpt>
      <trkpt lat="43.49485" lon="6.62605">
        <ele>30.42</ele>
        <time>2018-03-09T13:43:09Z</time>
      </trkpt>
      <trkpt lat="43.49485" lon="6.62606">
        <ele>30.42</ele>
        <time>2018-03-09T13:43:27Z</time>
      </trkpt>
      <trkpt lat="43.49485" lon="6.62606">
        <ele>30.42</ele>
        <time>2018-03-09T13:43:35Z</time>
      </trkpt>
      <trkpt lat="43.49482" lon="6.6261">
        <ele>30.42</ele>
        <time>2018-03-09T13:43:44Z</time>
      </trkpt>
      <trkpt lat="43.49475" lon="6.62623">
        <ele>29.94</ele>
        <time>2018-03-09T13:43:54Z</time>
      </trkpt>
      <trkpt lat="43.49471" lon="6.62636">
        <ele>28.5</ele>
        <time>2018-03-09T13:44:02Z</time>
      </trkpt>
      <trkpt lat="43.49469" lon="6.62639">
        <ele>28.5</ele>
        <time>2018-03-09T13:44:04Z</time>
      </trkpt>
      <trkpt lat="43.49467" lon="6.62647">
        <ele>27.05</ele>
        <time>2018-03-09T13:44:10Z</time>
      </trkpt>
      <trkpt lat="43.49466" lon="6.62655">
        <ele>26.57</ele>
        <time>2018-03-09T13:44:14Z</time>
      </trkpt>
      <trkpt lat="43.49465" lon="6.62667">
        <ele>25.61</ele>
        <time>2018-03-09T13:44:24Z</time>
      </trkpt>
      <trkpt lat="43.49465" lon="6.62669">
        <ele>25.61</ele>
        <time>2018-03-09T13:44:25Z</time>
      </trkpt>
      <trkpt lat="43.49467" lon="6.62677">
        <ele>25.61</ele>
        <time>2018-03-09T13:44:34Z</time>
      </trkpt>
      <trkpt lat="43.49467" lon="6.62677">
        <ele>25.61</ele>
        <time>2018-03-09T13:44:38Z</time>
      </trkpt>
      <trkpt lat="43.49469" lon="6.6268">
        <ele>25.13</ele>
        <time>2018-03-09T13:44:40Z</time>
      </trkpt>
      <trkpt lat="43.4947" lon="6.62685">
        <ele>25.13</ele>
        <time>2018-03-09T13:44:47Z</time>
      </trkpt>
      <trkpt lat="43.4947" lon="6.62686">
        <ele>25.13</ele>
        <time>2018-03-09T13:44:58Z</time>
      </trkpt>
      <trkpt lat="43.4947" lon="6.62687">
        <ele>24.65</ele>
        <time>2018-03-09T13:45:06Z</time>
      </trkpt>
      <trkpt lat="43.4947" lon="6.62685">
        <ele>25.61</ele>
        <time>2018-03-09T13:45:15Z</time>
      </trkpt>
      <trkpt lat="43.49471" lon="6.62685">
        <ele>24.65</ele>
        <time>2018-03-09T13:45:29Z</time>
      </trkpt>
      <trkpt lat="43.49471" lon="6.62685">
        <ele>24.65</ele>
        <time>2018-03-09T13:45:41Z</time>
      </trkpt>
      <trkpt lat="43.49471" lon="6.62685">
        <ele>24.65</ele>
        <time>2018-03-09T13:45:57Z</time>
      </trkpt>
      <trkpt lat="43.49471" lon="6.62685">
        <ele>24.65</ele>
        <time>2018-03-09T13:46:16Z</time>
      </trkpt>
      <trkpt lat="43.49472" lon="6.62685">
        <ele>25.13</ele>
        <time>2018-03-09T13:46:38Z</time>
      </trkpt>
      <trkpt lat="43.49472" lon="6.62685">
        <ele>21.77</ele>
        <time>2018-03-09T13:46:43Z</time>
      </trkpt>
      <trkpt lat="43.49472" lon="6.62685">
        <ele>29.94</ele>
        <time>2018-03-09T13:46:44Z</time>
      </trkpt>
      <trkpt lat="43.49472" lon="6.62685">
        <ele>20.81</ele>
        <time>2018-03-09T13:46:45Z</time>
      </trkpt>
      <trkpt lat="43.49472" lon="6.62685">
        <ele>29.94</ele>
        <time>2018-03-09T13:46:47Z</time>
      </trkpt>
      <trkpt lat="43.49472" lon="6.62685">
        <ele>25.61</ele>
        <time>2018-03-09T13:46:48Z</time>
      </trkpt>
      <trkpt lat="43.49472" lon="6.62685">
        <ele>27.53</ele>
        <time>2018-03-09T13:46:52Z</time>
      </trkpt>
      <trkpt lat="43.49472" lon="6.62685">
        <ele>21.77</ele>
        <time>2018-03-09T13:46:53Z</time>
      </trkpt>
      <trkpt lat="43.49472" lon="6.62685">
        <ele>24.17</ele>
        <time>2018-03-09T13:46:54Z</time>
      </trkpt>
      <trkpt lat="43.49472" lon="6.62685">
        <ele>31.86</ele>
        <time>2018-03-09T13:46:55Z</time>
      </trkpt>
      <trkpt lat="43.49472" lon="6.62685">
        <ele>21.77</ele>
        <time>2018-03-09T13:46:56Z</time>
      </trkpt>
      <trkpt lat="43.49472" lon="6.62685">
        <ele>26.57</ele>
        <time>2018-03-09T13:46:57Z</time>
      </trkpt>
      <trkpt lat="43.49472" lon="6.62685">
        <ele>20.81</ele>
        <time>2018-03-09T13:47:02Z</time>
      </trkpt>
      <trkpt lat="43.49472" lon="6.62685">
        <ele>27.53</ele>
        <time>2018-03-09T13:47:03Z</time>
      </trkpt>
      <trkpt lat="43.49472" lon="6.62685">
        <ele>26.09</ele>
        <time>2018-03-09T13:47:04Z</time>
      </trkpt>
      <trkpt lat="43.49472" lon="6.62686">
        <ele>22.25</ele>
        <time>2018-03-09T13:47:17Z</time>
      </trkpt>
      <trkpt lat="43.49471" lon="6.62685">
        <ele>26.09</ele>
        <time>2018-03-09T13:47:18Z</time>
      </trkpt>
      <trkpt lat="43.49471" lon="6.62684">
        <ele>26.09</ele>
        <time>2018-03-09T13:47:23Z</time>
      </trkpt>
      <trkpt lat="43.49473" lon="6.62684">
        <ele>24.65</ele>
        <time>2018-03-09T13:47:39Z</time>
      </trkpt>
      <trkpt lat="43.49473" lon="6.62689">
        <ele>25.13</ele>
        <time>2018-03-09T13:47:46Z</time>
      </trkpt>
      <trkpt lat="43.49468" lon="6.62697">
        <ele>25.61</ele>
        <time>2018-03-09T13:47:55Z</time>
      </trkpt>
      <trkpt lat="43.49467" lon="6.627">
        <ele>26.09</ele>
        <time>2018-03-09T13:48:04Z</time>
      </trkpt>
      <trkpt lat="43.49467" lon="6.62699">
        <ele>25.61</ele>
        <time>2018-03-09T13:48:10Z</time>
      </trkpt>
      <trkpt lat="43.4947" lon="6.62692">
        <ele>25.61</ele>
        <time>2018-03-09T13:48:19Z</time>
      </trkpt>
      <trkpt lat="43.49469" lon="6.62688">
        <ele>25.13</ele>
        <time>2018-03-09T13:48:28Z</time>
      </trkpt>
      <trkpt lat="43.49469" lon="6.6269">
        <ele>25.13</ele>
        <time>2018-03-09T13:48:44Z</time>
      </trkpt>
      <trkpt lat="43.49469" lon="6.62691">
        <ele>25.13</ele>
        <time>2018-03-09T13:48:45Z</time>
      </trkpt>
      <trkpt lat="43.49466" lon="6.62693">
        <ele>25.13</ele>
        <time>2018-03-09T13:48:48Z</time>
      </trkpt>
      <trkpt lat="43.49467" lon="6.627">
        <ele>25.61</ele>
        <time>2018-03-09T13:49:00Z</time>
      </trkpt>
      <trkpt lat="43.49468" lon="6.62699">
        <ele>25.61</ele>
        <time>2018-03-09T13:49:17Z</time>
      </trkpt>
      <trkpt lat="43.49468" lon="6.62699">
        <ele>25.13</ele>
        <time>2018-03-09T13:49:31Z</time>
      </trkpt>
      <trkpt lat="43.49468" lon="6.62699">
        <ele>25.61</ele>
        <time>2018-03-09T13:49:59Z</time>
      </trkpt>
      <trkpt lat="43.49468" lon="6.62699">
        <ele>25.61</ele>
        <time>2018-03-09T13:50:26Z</time>
      </trkpt>
      <trkpt lat="43.49467" lon="6.627">
        <ele>25.61</ele>
        <time>2018-03-09T13:50:37Z</time>
      </trkpt>
      <trkpt lat="43.49468" lon="6.62701">
        <ele>25.61</ele>
        <time>2018-03-09T13:50:48Z</time>
      </trkpt>
      <trkpt lat="43.49469" lon="6.62701">
        <ele>25.61</ele>
        <time>2018-03-09T13:50:57Z</time>
      </trkpt>
      <trkpt lat="43.49469" lon="6.62701">
        <ele>25.61</ele>
        <time>2018-03-09T13:51:13Z</time>
      </trkpt>
      <trkpt lat="43.49469" lon="6.627">
        <ele>25.61</ele>
        <time>2018-03-09T13:51:23Z</time>
      </trkpt>
      <trkpt lat="43.49468" lon="6.62697">
        <ele>25.61</ele>
        <time>2018-03-09T13:51:25Z</time>
      </trkpt>
      <trkpt lat="43.49468" lon="6.62693">
        <ele>25.61</ele>
        <time>2018-03-09T13:51:35Z</time>
      </trkpt>
      <trkpt lat="43.49468" lon="6.62693">
        <ele>25.13</ele>
        <time>2018-03-09T13:51:47Z</time>
      </trkpt>
      <trkpt lat="43.49467" lon="6.62695">
        <ele>25.13</ele>
        <time>2018-03-09T13:51:49Z</time>
      </trkpt>
      <trkpt lat="43.49467" lon="6.62697">
        <ele>25.13</ele>
        <time>2018-03-09T13:51:51Z</time>
      </trkpt>
      <trkpt lat="43.49469" lon="6.62699">
        <ele>25.61</ele>
        <time>2018-03-09T13:51:59Z</time>
      </trkpt>
      <trkpt lat="43.49469" lon="6.62702">
        <ele>26.09</ele>
        <time>2018-03-09T13:52:10Z</time>
      </trkpt>
      <trkpt lat="43.49469" lon="6.62702">
        <ele>26.57</ele>
        <time>2018-03-09T13:52:22Z</time>
      </trkpt>
      <trkpt lat="43.49468" lon="6.62702">
        <ele>25.61</ele>
        <time>2018-03-09T13:52:31Z</time>
      </trkpt>
      <trkpt lat="43.49468" lon="6.62701">
        <ele>25.61</ele>
        <time>2018-03-09T13:52:47Z</time>
      </trkpt>
      <trkpt lat="43.49468" lon="6.62701">
        <ele>25.61</ele>
        <time>2018-03-09T13:53:03Z</time>
      </trkpt>
      <trkpt lat="43.49468" lon="6.62702">
        <ele>25.61</ele>
        <time>2018-03-09T13:53:06Z</time>
      </trkpt>
      <trkpt lat="43.49472" lon="6.627">
        <ele>25.13</ele>
        <time>2018-03-09T13:53:12Z</time>
      </trkpt>
      <trkpt lat="43.49474" lon="6.62698">
        <ele>25.13</ele>
        <time>2018-03-09T13:53:15Z</time>
      </trkpt>
      <trkpt lat="43.49478" lon="6.62698">
        <ele>25.13</ele>
        <time>2018-03-09T13:53:19Z</time>
      </trkpt>
      <trkpt lat="43.49486" lon="6.62698">
        <ele>26.09</ele>
        <time>2018-03-09T13:53:27Z</time>
      </trkpt>
      <trkpt lat="43.49498" lon="6.62698">
        <ele>26.09</ele>
        <time>2018-03-09T13:53:38Z</time>
      </trkpt>
      <trkpt lat="43.49499" lon="6.62698">
        <ele>26.09</ele>
        <time>2018-03-09T13:53:39Z</time>
      </trkpt>
      <trkpt lat="43.49507" lon="6.62697">
        <ele>27.05</ele>
        <time>2018-03-09T13:53:49Z</time>
      </trkpt>
      <trkpt lat="43.49512" lon="6.62699">
        <ele>27.05</ele>
        <time>2018-03-09T13:53:53Z</time>
      </trkpt>
      <trkpt lat="43.49513" lon="6.62701">
        <ele>27.05</ele>
        <time>2018-03-09T13:53:55Z</time>
      </trkpt>
      <trkpt lat="43.49516" lon="6.62702">
        <ele>27.05</ele>
        <time>2018-03-09T13:53:58Z</time>
      </trkpt>
      <trkpt lat="43.49521" lon="6.62705">
        <ele>27.05</ele>
        <time>2018-03-09T13:54:03Z</time>
      </trkpt>
      <trkpt lat="43.49533" lon="6.62709">
        <ele>26.57</ele>
        <time>2018-03-09T13:54:14Z</time>
      </trkpt>
      <trkpt lat="43.49546" lon="6.62714">
        <ele>27.05</ele>
        <time>2018-03-09T13:54:25Z</time>
      </trkpt>
      <trkpt lat="43.49556" lon="6.62722">
        <ele>27.05</ele>
        <time>2018-03-09T13:54:35Z</time>
      </trkpt>
      <trkpt lat="43.49559" lon="6.62724">
        <ele>27.05</ele>
        <time>2018-03-09T13:54:38Z</time>
      </trkpt>
      <trkpt lat="43.49565" lon="6.62732">
        <ele>27.05</ele>
        <time>2018-03-09T13:54:44Z</time>
      </trkpt>
      <trkpt lat="43.49568" lon="6.62739">
        <ele>27.05</ele>
        <time>2018-03-09T13:54:49Z</time>
      </trkpt>
      <trkpt lat="43.49569" lon="6.62742">
        <ele>27.05</ele>
        <time>2018-03-09T13:54:51Z</time>
      </trkpt>
      <trkpt lat="43.49575" lon="6.62752">
        <ele>27.05</ele>
        <time>2018-03-09T13:55:00Z</time>
      </trkpt>
      <trkpt lat="43.49578" lon="6.62755">
        <ele>27.05</ele>
        <time>2018-03-09T13:55:03Z</time>
      </trkpt>
      <trkpt lat="43.49582" lon="6.6276">
        <ele>26.57</ele>
        <time>2018-03-09T13:55:07Z</time>
      </trkpt>
      <trkpt lat="43.49593" lon="6.62772">
        <ele>26.57</ele>
        <time>2018-03-09T13:55:19Z</time>
      </trkpt>
      <trkpt lat="43.49598" lon="6.6278">
        <ele>27.05</ele>
        <time>2018-03-09T13:55:24Z</time>
      </trkpt>
      <trkpt lat="43.49607" lon="6.62788">
        <ele>27.53</ele>
        <time>2018-03-09T13:55:34Z</time>
      </trkpt>
      <trkpt lat="43.49615" lon="6.62794">
        <ele>28.5</ele>
        <time>2018-03-09T13:55:42Z</time>
      </trkpt>
      <trkpt lat="43.49623" lon="6.62801">
        <ele>28.98</ele>
        <time>2018-03-09T13:55:49Z</time>
      </trkpt>
      <trkpt lat="43.49627" lon="6.62808">
        <ele>28.98</ele>
        <time>2018-03-09T13:55:54Z</time>
      </trkpt>
      <trkpt lat="43.49631" lon="6.62814">
        <ele>29.46</ele>
        <time>2018-03-09T13:55:58Z</time>
      </trkpt>
      <trkpt lat="43.49637" lon="6.62821">
        <ele>29.46</ele>
        <time>2018-03-09T13:56:05Z</time>
      </trkpt>
      <trkpt lat="43.4964" lon="6.62829">
        <ele>28.98</ele>
        <time>2018-03-09T13:56:10Z</time>
      </trkpt>
      <trkpt lat="43.49641" lon="6.62834">
        <ele>28.98</ele>
        <time>2018-03-09T13:56:13Z</time>
      </trkpt>
      <trkpt lat="43.49642" lon="6.62842">
        <ele>28.98</ele>
        <time>2018-03-09T13:56:17Z</time>
      </trkpt>
      <trkpt lat="43.49643" lon="6.6285">
        <ele>28.02</ele>
        <time>2018-03-09T13:56:21Z</time>
      </trkpt>
      <trkpt lat="43.49644" lon="6.62861">
        <ele>28.02</ele>
        <time>2018-03-09T13:56:26Z</time>
      </trkpt>
      <trkpt lat="43.49651" lon="6.62877">
        <ele>27.53</ele>
        <time>2018-03-09T13:56:37Z</time>
      </trkpt>
      <trkpt lat="43.49659" lon="6.62885">
        <ele>27.53</ele>
        <time>2018-03-09T13:56:46Z</time>
      </trkpt>
      <trkpt lat="43.4966" lon="6.62887">
        <ele>27.05</ele>
        <time>2018-03-09T13:56:58Z</time>
      </trkpt>
      <trkpt lat="43.4966" lon="6.62887">
        <ele>27.05</ele>
        <time>2018-03-09T13:57:04Z</time>
      </trkpt>
      <trkpt lat="43.4966" lon="6.62887">
        <ele>27.05</ele>
        <time>2018-03-09T13:57:13Z</time>
      </trkpt>
      <trkpt lat="43.4966" lon="6.62889">
        <ele>27.05</ele>
        <time>2018-03-09T13:57:23Z</time>
      </trkpt>
      <trkpt lat="43.4966" lon="6.62889">
        <ele>27.05</ele>
        <time>2018-03-09T13:57:24Z</time>
      </trkpt>
      <trkpt lat="43.49662" lon="6.62889">
        <ele>27.05</ele>
        <time>2018-03-09T13:57:32Z</time>
      </trkpt>
      <trkpt lat="43.49664" lon="6.62888">
        <ele>27.05</ele>
        <time>2018-03-09T13:57:42Z</time>
      </trkpt>
      <trkpt lat="43.49664" lon="6.62888">
        <ele>27.05</ele>
        <time>2018-03-09T13:57:44Z</time>
      </trkpt>
      <trkpt lat="43.49675" lon="6.62891">
        <ele>28.02</ele>
        <time>2018-03-09T13:57:55Z</time>
      </trkpt>
      <trkpt lat="43.49678" lon="6.62892">
        <ele>28.02</ele>
        <time>2018-03-09T13:57:57Z</time>
      </trkpt>
      <trkpt lat="43.49682" lon="6.62891">
        <ele>28.02</ele>
        <time>2018-03-09T13:58:00Z</time>
      </trkpt>
      <trkpt lat="43.49692" lon="6.62887">
        <ele>28.5</ele>
        <time>2018-03-09T13:58:09Z</time>
      </trkpt>
      <trkpt lat="43.49698" lon="6.62885">
        <ele>28.5</ele>
        <time>2018-03-09T13:58:16Z</time>
      </trkpt>
      <trkpt lat="43.49706" lon="6.62878">
        <ele>29.94</ele>
        <time>2018-03-09T13:58:27Z</time>
      </trkpt>
      <trkpt lat="43.49706" lon="6.62877">
        <ele>29.94</ele>
        <time>2018-03-09T13:58:28Z</time>
      </trkpt>
      <trkpt lat="43.49709" lon="6.62872">
        <ele>30.42</ele>
        <time>2018-03-09T13:58:32Z</time>
      </trkpt>
      <trkpt lat="43.49717" lon="6.62856">
        <ele>30.9</ele>
        <time>2018-03-09T13:58:44Z</time>
      </trkpt>
      <trkpt lat="43.49728" lon="6.62845">
        <ele>31.86</ele>
        <time>2018-03-09T13:58:54Z</time>
      </trkpt>
      <trkpt lat="43.49741" lon="6.62843">
        <ele>33.3</ele>
        <time>2018-03-09T13:59:05Z</time>
      </trkpt>
      <trkpt lat="43.49751" lon="6.62847">
        <ele>34.26</ele>
        <time>2018-03-09T13:59:15Z</time>
      </trkpt>
      <trkpt lat="43.49759" lon="6.62854">
        <ele>35.23</ele>
        <time>2018-03-09T13:59:23Z</time>
      </trkpt>
      <trkpt lat="43.49768" lon="6.62862">
        <ele>35.71</ele>
        <time>2018-03-09T13:59:31Z</time>
      </trkpt>
      <trkpt lat="43.49773" lon="6.62869">
        <ele>38.11</ele>
        <time>2018-03-09T13:59:39Z</time>
      </trkpt>
      <trkpt lat="43.49775" lon="6.6287">
        <ele>37.15</ele>
        <time>2018-03-09T13:59:42Z</time>
      </trkpt>
      <trkpt lat="43.49777" lon="6.62872">
        <ele>37.15</ele>
        <time>2018-03-09T13:59:44Z</time>
      </trkpt>
      <trkpt lat="43.49782" lon="6.62876">
        <ele>37.63</ele>
        <time>2018-03-09T13:59:49Z</time>
      </trkpt>
      <trkpt lat="43.49789" lon="6.62879">
        <ele>38.11</ele>
        <time>2018-03-09T13:59:55Z</time>
      </trkpt>
      <trkpt lat="43.49798" lon="6.62882">
        <ele>38.59</ele>
        <time>2018-03-09T14:00:04Z</time>
      </trkpt>
      <trkpt lat="43.49799" lon="6.62882">
        <ele>38.59</ele>
        <time>2018-03-09T14:00:05Z</time>
      </trkpt>
      <trkpt lat="43.49817" lon="6.62884">
        <ele>39.07</ele>
        <time>2018-03-09T14:00:18Z</time>
      </trkpt>
      <trkpt lat="43.49828" lon="6.62889">
        <ele>39.55</ele>
        <time>2018-03-09T14:00:26Z</time>
      </trkpt>
      <trkpt lat="43.49839" lon="6.62893">
        <ele>40.03</ele>
        <time>2018-03-09T14:00:35Z</time>
      </trkpt>
      <trkpt lat="43.49847" lon="6.62897">
        <ele>40.51</ele>
        <time>2018-03-09T14:00:42Z</time>
      </trkpt>
      <trkpt lat="43.49849" lon="6.62899">
        <ele>40.51</ele>
        <time>2018-03-09T14:00:44Z</time>
      </trkpt>
      <trkpt lat="43.49861" lon="6.62906">
        <ele>40.99</ele>
        <time>2018-03-09T14:00:56Z</time>
      </trkpt>
      <trkpt lat="43.49866" lon="6.62907">
        <ele>40.99</ele>
        <time>2018-03-09T14:00:59Z</time>
      </trkpt>
      <trkpt lat="43.49881" lon="6.62912">
        <ele>40.99</ele>
        <time>2018-03-09T14:01:10Z</time>
      </trkpt>
      <trkpt lat="43.49893" lon="6.6292">
        <ele>41.95</ele>
        <time>2018-03-09T14:01:21Z</time>
      </trkpt>
      <trkpt lat="43.49906" lon="6.62935">
        <ele>41.47</ele>
        <time>2018-03-09T14:01:34Z</time>
      </trkpt>
      <trkpt lat="43.49917" lon="6.62948">
        <ele>41.95</ele>
        <time>2018-03-09T14:01:46Z</time>
      </trkpt>
      <trkpt lat="43.49919" lon="6.6295">
        <ele>42.44</ele>
        <time>2018-03-09T14:01:48Z</time>
      </trkpt>
      <trkpt lat="43.49931" lon="6.62963">
        <ele>42.92</ele>
        <time>2018-03-09T14:02:01Z</time>
      </trkpt>
      <trkpt lat="43.49931" lon="6.62964">
        <ele>42.92</ele>
        <time>2018-03-09T14:02:02Z</time>
      </trkpt>
      <trkpt lat="43.49946" lon="6.62978">
        <ele>43.88</ele>
        <time>2018-03-09T14:02:16Z</time>
      </trkpt>
      <trkpt lat="43.49956" lon="6.62986">
        <ele>44.84</ele>
        <time>2018-03-09T14:02:26Z</time>
      </trkpt>
      <trkpt lat="43.49964" lon="6.6299">
        <ele>45.32</ele>
        <time>2018-03-09T14:02:33Z</time>
      </trkpt>
      <trkpt lat="43.49978" lon="6.63001">
        <ele>45.8</ele>
        <time>2018-03-09T14:02:46Z</time>
      </trkpt>
      <trkpt lat="43.49988" lon="6.63005">
        <ele>46.28</ele>
        <time>2018-03-09T14:02:57Z</time>
      </trkpt>
      <trkpt lat="43.49993" lon="6.63004">
        <ele>46.76</ele>
        <time>2018-03-09T14:03:01Z</time>
      </trkpt>
      <trkpt lat="43.50003" lon="6.63008">
        <ele>46.76</ele>
        <time>2018-03-09T14:03:10Z</time>
      </trkpt>
      <trkpt lat="43.50008" lon="6.63007">
        <ele>47.24</ele>
        <time>2018-03-09T14:03:14Z</time>
      </trkpt>
      <trkpt lat="43.50015" lon="6.63008">
        <ele>47.72</ele>
        <time>2018-03-09T14:03:20Z</time>
      </trkpt>
      <trkpt lat="43.50025" lon="6.63008">
        <ele>48.2</ele>
        <time>2018-03-09T14:03:27Z</time>
      </trkpt>
      <trkpt lat="43.50038" lon="6.63013">
        <ele>49.65</ele>
        <time>2018-03-09T14:03:38Z</time>
      </trkpt>
      <trkpt lat="43.50054" lon="6.6301">
        <ele>50.61</ele>
        <time>2018-03-09T14:03:51Z</time>
      </trkpt>
      <trkpt lat="43.50063" lon="6.62999">
        <ele>51.09</ele>
        <time>2018-03-09T14:04:01Z</time>
      </trkpt>
      <trkpt lat="43.50064" lon="6.62997">
        <ele>51.09</ele>
        <time>2018-03-09T14:04:03Z</time>
      </trkpt>
      <trkpt lat="43.50074" lon="6.62986">
        <ele>51.09</ele>
        <time>2018-03-09T14:04:14Z</time>
      </trkpt>
      <trkpt lat="43.50084" lon="6.62978">
        <ele>52.05</ele>
        <time>2018-03-09T14:04:23Z</time>
      </trkpt>
      <trkpt lat="43.50096" lon="6.6297">
        <ele>51.57</ele>
        <time>2018-03-09T14:04:33Z</time>
      </trkpt>
      <trkpt lat="43.5011" lon="6.62967">
        <ele>52.05</ele>
        <time>2018-03-09T14:04:44Z</time>
      </trkpt>
      <trkpt lat="43.50112" lon="6.62965">
        <ele>52.05</ele>
        <time>2018-03-09T14:04:47Z</time>
      </trkpt>
      <trkpt lat="43.50128" lon="6.62962">
        <ele>52.05</ele>
        <time>2018-03-09T14:04:59Z</time>
      </trkpt>
      <trkpt lat="43.50134" lon="6.6296">
        <ele>52.53</ele>
        <time>2018-03-09T14:05:04Z</time>
      </trkpt>
      <trkpt lat="43.50145" lon="6.62957">
        <ele>52.53</ele>
        <time>2018-03-09T14:05:12Z</time>
      </trkpt>
      <trkpt lat="43.50159" lon="6.62948">
        <ele>53.49</ele>
        <time>2018-03-09T14:05:24Z</time>
      </trkpt>
      <trkpt lat="43.50164" lon="6.62945">
        <ele>53.97</ele>
        <time>2018-03-09T14:05:28Z</time>
      </trkpt>
      <trkpt lat="43.50171" lon="6.62939">
        <ele>54.45</ele>
        <time>2018-03-09T14:05:35Z</time>
      </trkpt>
      <trkpt lat="43.50178" lon="6.62934">
        <ele>54.45</ele>
        <time>2018-03-09T14:05:42Z</time>
      </trkpt>
      <trkpt lat="43.50181" lon="6.62932">
        <ele>54.45</ele>
        <time>2018-03-09T14:05:44Z</time>
      </trkpt>
      <trkpt lat="43.50187" lon="6.62934">
        <ele>54.45</ele>
        <time>2018-03-09T14:05:50Z</time>
      </trkpt>
      <trkpt lat="43.50199" lon="6.62942">
        <ele>53.49</ele>
        <time>2018-03-09T14:06:02Z</time>
      </trkpt>
      <trkpt lat="43.50204" lon="6.62946">
        <ele>53.01</ele>
        <time>2018-03-09T14:06:06Z</time>
      </trkpt>
      <trkpt lat="43.50212" lon="6.62959">
        <ele>50.13</ele>
        <time>2018-03-09T14:06:15Z</time>
      </trkpt>
      <trkpt lat="43.50214" lon="6.62962">
        <ele>53.49</ele>
        <time>2018-03-09T14:06:17Z</time>
      </trkpt>
      <trkpt lat="43.50216" lon="6.62964">
        <ele>52.53</ele>
        <time>2018-03-09T14:06:19Z</time>
      </trkpt>
      <trkpt lat="43.50223" lon="6.62975">
        <ele>52.05</ele>
        <time>2018-03-09T14:06:27Z</time>
      </trkpt>
      <trkpt lat="43.50231" lon="6.6299">
        <ele>52.53</ele>
        <time>2018-03-09T14:06:37Z</time>
      </trkpt>
      <trkpt lat="43.50232" lon="6.62991">
        <ele>52.53</ele>
        <time>2018-03-09T14:06:38Z</time>
      </trkpt>
      <trkpt lat="43.50232" lon="6.62994">
        <ele>52.53</ele>
        <time>2018-03-09T14:06:40Z</time>
      </trkpt>
      <trkpt lat="43.50235" lon="6.62998">
        <ele>53.01</ele>
        <time>2018-03-09T14:06:43Z</time>
      </trkpt>
      <trkpt lat="43.50248" lon="6.63006">
        <ele>54.45</ele>
        <time>2018-03-09T14:06:56Z</time>
      </trkpt>
      <trkpt lat="43.50259" lon="6.6301">
        <ele>54.93</ele>
        <time>2018-03-09T14:07:05Z</time>
      </trkpt>
      <trkpt lat="43.5027" lon="6.63019">
        <ele>53.97</ele>
        <time>2018-03-09T14:07:15Z</time>
      </trkpt>
      <trkpt lat="43.50272" lon="6.63021">
        <ele>55.41</ele>
        <time>2018-03-09T14:07:17Z</time>
      </trkpt>
      <trkpt lat="43.50278" lon="6.63022">
        <ele>54.93</ele>
        <time>2018-03-09T14:07:23Z</time>
      </trkpt>
      <trkpt lat="43.50287" lon="6.63017">
        <ele>55.41</ele>
        <time>2018-03-09T14:07:31Z</time>
      </trkpt>
      <trkpt lat="43.50291" lon="6.63014">
        <ele>55.41</ele>
        <time>2018-03-09T14:07:35Z</time>
      </trkpt>
      <trkpt lat="43.50305" lon="6.63005">
        <ele>55.41</ele>
        <time>2018-03-09T14:07:47Z</time>
      </trkpt>
      <trkpt lat="43.50319" lon="6.63001">
        <ele>55.41</ele>
        <time>2018-03-09T14:07:57Z</time>
      </trkpt>
      <trkpt lat="43.50332" lon="6.63002">
        <ele>55.89</ele>
        <time>2018-03-09T14:08:08Z</time>
      </trkpt>
      <trkpt lat="43.50347" lon="6.63003">
        <ele>57.34</ele>
        <time>2018-03-09T14:08:19Z</time>
      </trkpt>
      <trkpt lat="43.5036" lon="6.63001">
        <ele>57.34</ele>
        <time>2018-03-09T14:08:29Z</time>
      </trkpt>
      <trkpt lat="43.50376" lon="6.62998">
        <ele>56.86</ele>
        <time>2018-03-09T14:08:41Z</time>
      </trkpt>
      <trkpt lat="43.50388" lon="6.62997">
        <ele>57.34</ele>
        <time>2018-03-09T14:08:50Z</time>
      </trkpt>
      <trkpt lat="43.50392" lon="6.62992">
        <ele>57.34</ele>
        <time>2018-03-09T14:08:54Z</time>
      </trkpt>
      <trkpt lat="43.50398" lon="6.62987">
        <ele>56.86</ele>
        <time>2018-03-09T14:09:00Z</time>
      </trkpt>
      <trkpt lat="43.50407" lon="6.62976">
        <ele>56.37</ele>
        <time>2018-03-09T14:09:08Z</time>
      </trkpt>
      <trkpt lat="43.50418" lon="6.62969">
        <ele>56.37</ele>
        <time>2018-03-09T14:09:16Z</time>
      </trkpt>
      <trkpt lat="43.50422" lon="6.62964">
        <ele>56.37</ele>
        <time>2018-03-09T14:09:21Z</time>
      </trkpt>
      <trkpt lat="43.50429" lon="6.62956">
        <ele>56.37</ele>
        <time>2018-03-09T14:09:28Z</time>
      </trkpt>
      <trkpt lat="43.50439" lon="6.62945">
        <ele>55.89</ele>
        <time>2018-03-09T14:09:38Z</time>
      </trkpt>
      <trkpt lat="43.50445" lon="6.62935">
        <ele>55.41</ele>
        <time>2018-03-09T14:09:45Z</time>
      </trkpt>
      <trkpt lat="43.50454" lon="6.62917">
        <ele>54.45</ele>
        <time>2018-03-09T14:09:57Z</time>
      </trkpt>
      <trkpt lat="43.50455" lon="6.62911">
        <ele>54.45</ele>
        <time>2018-03-09T14:10:01Z</time>
      </trkpt>
      <trkpt lat="43.50456" lon="6.62906">
        <ele>54.45</ele>
        <time>2018-03-09T14:10:11Z</time>
      </trkpt>
      <trkpt lat="43.50456" lon="6.62906">
        <ele>53.97</ele>
        <time>2018-03-09T14:10:29Z</time>
      </trkpt>
      <trkpt lat="43.50455" lon="6.62899">
        <ele>53.49</ele>
        <time>2018-03-09T14:10:41Z</time>
      </trkpt>
      <trkpt lat="43.50453" lon="6.62895">
        <ele>53.49</ele>
        <time>2018-03-09T14:10:44Z</time>
      </trkpt>
      <trkpt lat="43.50448" lon="6.6288">
        <ele>54.45</ele>
        <time>2018-03-09T14:10:55Z</time>
      </trkpt>
      <trkpt lat="43.5045" lon="6.62862">
        <ele>54.45</ele>
        <time>2018-03-09T14:11:05Z</time>
      </trkpt>
      <trkpt lat="43.50456" lon="6.62853">
        <ele>54.45</ele>
        <time>2018-03-09T14:11:12Z</time>
      </trkpt>
      <trkpt lat="43.50459" lon="6.62847">
        <ele>54.45</ele>
        <time>2018-03-09T14:11:17Z</time>
      </trkpt>
      <trkpt lat="43.50461" lon="6.6284">
        <ele>54.93</ele>
        <time>2018-03-09T14:11:22Z</time>
      </trkpt>
      <trkpt lat="43.50465" lon="6.62824">
        <ele>55.41</ele>
        <time>2018-03-09T14:11:32Z</time>
      </trkpt>
      <trkpt lat="43.50469" lon="6.62806">
        <ele>55.89</ele>
        <time>2018-03-09T14:11:42Z</time>
      </trkpt>
      <trkpt lat="43.50469" lon="6.628">
        <ele>55.89</ele>
        <time>2018-03-09T14:11:45Z</time>
      </trkpt>
      <trkpt lat="43.50477" lon="6.62777">
        <ele>55.89</ele>
        <time>2018-03-09T14:11:58Z</time>
      </trkpt>
      <trkpt lat="43.50479" lon="6.62771">
        <ele>55.41</ele>
        <time>2018-03-09T14:12:02Z</time>
      </trkpt>
      <trkpt lat="43.50483" lon="6.62764">
        <ele>55.41</ele>
        <time>2018-03-09T14:12:07Z</time>
      </trkpt>
      <trkpt lat="43.50493" lon="6.62747">
        <ele>55.41</ele>
        <time>2018-03-09T14:12:19Z</time>
      </trkpt>
      <trkpt lat="43.50498" lon="6.62739">
        <ele>55.41</ele>
        <time>2018-03-09T14:12:24Z</time>
      </trkpt>
      <trkpt lat="43.50501" lon="6.62731">
        <ele>54.93</ele>
        <time>2018-03-09T14:12:30Z</time>
      </trkpt>
      <trkpt lat="43.50506" lon="6.62716">
        <ele>54.93</ele>
        <time>2018-03-09T14:12:40Z</time>
      </trkpt>
      <trkpt lat="43.50511" lon="6.62708">
        <ele>54.93</ele>
        <time>2018-03-09T14:12:47Z</time>
      </trkpt>
      <trkpt lat="43.50515" lon="6.62699">
        <ele>53.97</ele>
        <time>2018-03-09T14:12:53Z</time>
      </trkpt>
      <trkpt lat="43.50521" lon="6.62691">
        <ele>53.49</ele>
        <time>2018-03-09T14:12:59Z</time>
      </trkpt>
      <trkpt lat="43.50532" lon="6.62677">
        <ele>53.01</ele>
        <time>2018-03-09T14:13:09Z</time>
      </trkpt>
      <trkpt lat="43.50536" lon="6.62661">
        <ele>53.01</ele>
        <time>2018-03-09T14:13:18Z</time>
      </trkpt>
      <trkpt lat="43.50537" lon="6.62647">
        <ele>52.05</ele>
        <time>2018-03-09T14:13:27Z</time>
      </trkpt>
      <trkpt lat="43.50539" lon="6.62627">
        <ele>50.13</ele>
        <time>2018-03-09T14:13:38Z</time>
      </trkpt>
      <trkpt lat="43.50542" lon="6.62606">
        <ele>49.16</ele>
        <time>2018-03-09T14:13:49Z</time>
      </trkpt>
      <trkpt lat="43.50542" lon="6.62589">
        <ele>48.68</ele>
        <time>2018-03-09T14:13:59Z</time>
      </trkpt>
      <trkpt lat="43.50544" lon="6.62586">
        <ele>49.16</ele>
        <time>2018-03-09T14:14:08Z</time>
      </trkpt>
      <trkpt lat="43.50545" lon="6.62584">
        <ele>49.16</ele>
        <time>2018-03-09T14:14:24Z</time>
      </trkpt>
      <trkpt lat="43.50545" lon="6.62584">
        <ele>49.16</ele>
        <time>2018-03-09T14:14:29Z</time>
      </trkpt>
      <trkpt lat="43.50547" lon="6.62582">
        <ele>49.65</ele>
        <time>2018-03-09T14:14:32Z</time>
      </trkpt>
      <trkpt lat="43.5055" lon="6.62581">
        <ele>49.16</ele>
        <time>2018-03-09T14:14:34Z</time>
      </trkpt>
      <trkpt lat="43.50554" lon="6.62579">
        <ele>49.65</ele>
        <time>2018-03-09T14:14:46Z</time>
      </trkpt>
      <trkpt lat="43.50554" lon="6.62579">
        <ele>49.65</ele>
        <time>2018-03-09T14:14:48Z</time>
      </trkpt>
      <trkpt lat="43.50557" lon="6.62578">
        <ele>49.65</ele>
        <time>2018-03-09T14:14:52Z</time>
      </trkpt>
      <trkpt lat="43.50568" lon="6.62576">
        <ele>50.13</ele>
        <time>2018-03-09T14:15:02Z</time>
      </trkpt>
      <trkpt lat="43.5058" lon="6.62575">
        <ele>50.61</ele>
        <time>2018-03-09T14:15:11Z</time>
      </trkpt>
      <trkpt lat="43.50581" lon="6.62576">
        <ele>50.61</ele>
        <time>2018-03-09T14:15:12Z</time>
      </trkpt>
      <trkpt lat="43.50591" lon="6.6258">
        <ele>51.09</ele>
        <time>2018-03-09T14:15:22Z</time>
      </trkpt>
      <trkpt lat="43.50592" lon="6.62582">
        <ele>51.09</ele>
        <time>2018-03-09T14:15:24Z</time>
      </trkpt>
      <trkpt lat="43.50596" lon="6.62585">
        <ele>51.09</ele>
        <time>2018-03-09T14:15:27Z</time>
      </trkpt>
      <trkpt lat="43.50606" lon="6.62592">
        <ele>51.57</ele>
        <time>2018-03-09T14:15:38Z</time>
      </trkpt>
      <trkpt lat="43.50615" lon="6.62596">
        <ele>53.01</ele>
        <time>2018-03-09T14:15:47Z</time>
      </trkpt>
      <trkpt lat="43.5062" lon="6.62592">
        <ele>53.49</ele>
        <time>2018-03-09T14:15:52Z</time>
      </trkpt>
      <trkpt lat="43.50625" lon="6.62591">
        <ele>54.45</ele>
        <time>2018-03-09T14:16:03Z</time>
      </trkpt>
      <trkpt lat="43.50627" lon="6.62591">
        <ele>54.45</ele>
        <time>2018-03-09T14:16:07Z</time>
      </trkpt>
      <trkpt lat="43.50635" lon="6.62595">
        <ele>54.93</ele>
        <time>2018-03-09T14:16:14Z</time>
      </trkpt>
      <trkpt lat="43.50639" lon="6.62595">
        <ele>55.41</ele>
        <time>2018-03-09T14:16:18Z</time>
      </trkpt>
      <trkpt lat="43.50646" lon="6.62594">
        <ele>55.89</ele>
        <time>2018-03-09T14:16:27Z</time>
      </trkpt>
      <trkpt lat="43.50648" lon="6.62594">
        <ele>56.37</ele>
        <time>2018-03-09T14:16:38Z</time>
      </trkpt>
      <trkpt lat="43.50651" lon="6.62593">
        <ele>56.37</ele>
        <time>2018-03-09T14:16:47Z</time>
      </trkpt>
      <trkpt lat="43.50652" lon="6.62592">
        <ele>56.37</ele>
        <time>2018-03-09T14:17:00Z</time>
      </trkpt>
      <trkpt lat="43.50651" lon="6.62591">
        <ele>56.37</ele>
        <time>2018-03-09T14:17:03Z</time>
      </trkpt>
      <trkpt lat="43.50656" lon="6.62592">
        <ele>56.86</ele>
        <time>2018-03-09T14:17:08Z</time>
      </trkpt>
      <trkpt lat="43.50666" lon="6.62583">
        <ele>57.34</ele>
        <time>2018-03-09T14:17:19Z</time>
      </trkpt>
      <trkpt lat="43.5067" lon="6.62573">
        <ele>57.82</ele>
        <time>2018-03-09T14:17:28Z</time>
      </trkpt>
      <trkpt lat="43.50671" lon="6.62572">
        <ele>57.82</ele>
        <time>2018-03-09T14:17:29Z</time>
      </trkpt>
      <trkpt lat="43.50685" lon="6.62556">
        <ele>57.82</ele>
        <time>2018-03-09T14:17:42Z</time>
      </trkpt>
      <trkpt lat="43.50691" lon="6.62553">
        <ele>57.82</ele>
        <time>2018-03-09T14:17:49Z</time>
      </trkpt>
      <trkpt lat="43.50694" lon="6.62551">
        <ele>58.3</ele>
        <time>2018-03-09T14:17:52Z</time>
      </trkpt>
      <trkpt lat="43.50706" lon="6.62539">
        <ele>58.78</ele>
        <time>2018-03-09T14:18:03Z</time>
      </trkpt>
      <trkpt lat="43.50719" lon="6.62528">
        <ele>58.3</ele>
        <time>2018-03-09T14:18:14Z</time>
      </trkpt>
      <trkpt lat="43.50729" lon="6.62525">
        <ele>57.82</ele>
        <time>2018-03-09T14:18:23Z</time>
      </trkpt>
      <trkpt lat="43.50735" lon="6.62523">
        <ele>57.82</ele>
        <time>2018-03-09T14:18:29Z</time>
      </trkpt>
      <trkpt lat="43.50744" lon="6.62519">
        <ele>57.82</ele>
        <time>2018-03-09T14:18:37Z</time>
      </trkpt>
      <trkpt lat="43.5075" lon="6.62514">
        <ele>57.34</ele>
        <time>2018-03-09T14:18:42Z</time>
      </trkpt>
      <trkpt lat="43.50752" lon="6.62512">
        <ele>57.34</ele>
        <time>2018-03-09T14:18:44Z</time>
      </trkpt>
      <trkpt lat="43.50765" lon="6.62505">
        <ele>56.86</ele>
        <time>2018-03-09T14:18:55Z</time>
      </trkpt>
      <trkpt lat="43.5078" lon="6.62499">
        <ele>56.86</ele>
        <time>2018-03-09T14:19:07Z</time>
      </trkpt>
      <trkpt lat="43.50788" lon="6.62497">
        <ele>56.86</ele>
        <time>2018-03-09T14:19:14Z</time>
      </trkpt>
      <trkpt lat="43.50791" lon="6.62497">
        <ele>56.86</ele>
        <time>2018-03-09T14:19:17Z</time>
      </trkpt>
      <trkpt lat="43.50798" lon="6.62497">
        <ele>57.82</ele>
        <time>2018-03-09T14:19:26Z</time>
      </trkpt>
      <trkpt lat="43.50807" lon="6.62497">
        <ele>59.26</ele>
        <time>2018-03-09T14:19:35Z</time>
      </trkpt>
      <trkpt lat="43.50819" lon="6.62493">
        <ele>59.74</ele>
        <time>2018-03-09T14:19:45Z</time>
      </trkpt>
      <trkpt lat="43.50828" lon="6.62494">
        <ele>60.7</ele>
        <time>2018-03-09T14:19:53Z</time>
      </trkpt>
      <trkpt lat="43.50829" lon="6.62493">
        <ele>60.7</ele>
        <time>2018-03-09T14:19:55Z</time>
      </trkpt>
      <trkpt lat="43.50833" lon="6.62494">
        <ele>61.18</ele>
        <time>2018-03-09T14:19:59Z</time>
      </trkpt>
      <trkpt lat="43.50838" lon="6.62494">
        <ele>61.18</ele>
        <time>2018-03-09T14:20:02Z</time>
      </trkpt>
      <trkpt lat="43.50845" lon="6.62498">
        <ele>61.18</ele>
        <time>2018-03-09T14:20:12Z</time>
      </trkpt>
      <trkpt lat="43.50849" lon="6.62499">
        <ele>61.66</ele>
        <time>2018-03-09T14:20:24Z</time>
      </trkpt>
      <trkpt lat="43.50851" lon="6.625">
        <ele>61.18</ele>
        <time>2018-03-09T14:20:26Z</time>
      </trkpt>
      <trkpt lat="43.50856" lon="6.625">
        <ele>61.18</ele>
        <time>2018-03-09T14:20:30Z</time>
      </trkpt>
      <trkpt lat="43.50863" lon="6.62502">
        <ele>61.18</ele>
        <time>2018-03-09T14:20:37Z</time>
      </trkpt>
      <trkpt lat="43.50867" lon="6.62501">
        <ele>61.18</ele>
        <time>2018-03-09T14:20:40Z</time>
      </trkpt>
      <trkpt lat="43.5087" lon="6.62499">
        <ele>61.18</ele>
        <time>2018-03-09T14:20:43Z</time>
      </trkpt>
      <trkpt lat="43.50874" lon="6.62497">
        <ele>61.18</ele>
        <time>2018-03-09T14:20:47Z</time>
      </trkpt>
      <trkpt lat="43.50881" lon="6.62497">
        <ele>60.7</ele>
        <time>2018-03-09T14:20:54Z</time>
      </trkpt>
      <trkpt lat="43.50894" lon="6.62491">
        <ele>61.18</ele>
        <time>2018-03-09T14:21:05Z</time>
      </trkpt>
      <trkpt lat="43.50905" lon="6.62485">
        <ele>61.18</ele>
        <time>2018-03-09T14:21:15Z</time>
      </trkpt>
      <trkpt lat="43.50915" lon="6.62484">
        <ele>61.18</ele>
        <time>2018-03-09T14:21:23Z</time>
      </trkpt>
      <trkpt lat="43.50923" lon="6.62483">
        <ele>60.7</ele>
        <time>2018-03-09T14:21:29Z</time>
      </trkpt>
      <trkpt lat="43.50931" lon="6.62482">
        <ele>60.7</ele>
        <time>2018-03-09T14:21:36Z</time>
      </trkpt>
      <trkpt lat="43.50938" lon="6.62481">
        <ele>61.18</ele>
        <time>2018-03-09T14:21:42Z</time>
      </trkpt>
      <trkpt lat="43.50944" lon="6.62475">
        <ele>61.18</ele>
        <time>2018-03-09T14:21:50Z</time>
      </trkpt>
      <trkpt lat="43.50955" lon="6.62467">
        <ele>62.14</ele>
        <time>2018-03-09T14:22:00Z</time>
      </trkpt>
      <trkpt lat="43.50966" lon="6.62461">
        <ele>62.14</ele>
        <time>2018-03-09T14:22:10Z</time>
      </trkpt>
      <trkpt lat="43.50974" lon="6.62454">
        <ele>62.14</ele>
        <time>2018-03-09T14:22:17Z</time>
      </trkpt>
      <trkpt lat="43.50986" lon="6.62449">
        <ele>65.99</ele>
        <time>2018-03-09T14:22:26Z</time>
      </trkpt>
      <trkpt lat="43.50989" lon="6.62447">
        <ele>63.58</ele>
        <time>2018-03-09T14:22:29Z</time>
      </trkpt>
      <trkpt lat="43.50994" lon="6.62439">
        <ele>62.62</ele>
        <time>2018-03-09T14:22:35Z</time>
      </trkpt>
      <trkpt lat="43.51" lon="6.62421">
        <ele>62.62</ele>
        <time>2018-03-09T14:22:47Z</time>
      </trkpt>
      <trkpt lat="43.51006" lon="6.62402">
        <ele>62.62</ele>
        <time>2018-03-09T14:22:59Z</time>
      </trkpt>
      <trkpt lat="43.51009" lon="6.62389">
        <ele>63.1</ele>
        <time>2018-03-09T14:23:07Z</time>
      </trkpt>
      <trkpt lat="43.51015" lon="6.62375">
        <ele>64.55</ele>
        <time>2018-03-09T14:23:16Z</time>
      </trkpt>
      <trkpt lat="43.51018" lon="6.62367">
        <ele>65.51</ele>
        <time>2018-03-09T14:23:22Z</time>
      </trkpt>
      <trkpt lat="43.51023" lon="6.62348">
        <ele>66.95</ele>
        <time>2018-03-09T14:23:34Z</time>
      </trkpt>
      <trkpt lat="43.51026" lon="6.62334">
        <ele>67.43</ele>
        <time>2018-03-09T14:23:44Z</time>
      </trkpt>
      <trkpt lat="43.51026" lon="6.62325">
        <ele>69.35</ele>
        <time>2018-03-09T14:23:53Z</time>
      </trkpt>
      <trkpt lat="43.51026" lon="6.62323">
        <ele>68.39</ele>
        <time>2018-03-09T14:24:00Z</time>
      </trkpt>
      <trkpt lat="43.51026" lon="6.6232">
        <ele>68.39</ele>
        <time>2018-03-09T14:24:03Z</time>
      </trkpt>
      <trkpt lat="43.5102" lon="6.62309">
        <ele>68.87</ele>
        <time>2018-03-09T14:24:14Z</time>
      </trkpt>
      <trkpt lat="43.51013" lon="6.62294">
        <ele>69.83</ele>
        <time>2018-03-09T14:24:25Z</time>
      </trkpt>
      <trkpt lat="43.51012" lon="6.62291">
        <ele>70.31</ele>
        <time>2018-03-09T14:24:27Z</time>
      </trkpt>
      <trkpt lat="43.51004" lon="6.62275">
        <ele>70.79</ele>
        <time>2018-03-09T14:24:38Z</time>
      </trkpt>
      <trkpt lat="43.51002" lon="6.62272">
        <ele>70.79</ele>
        <time>2018-03-09T14:24:40Z</time>
      </trkpt>
      <trkpt lat="43.50996" lon="6.6226">
        <ele>70.79</ele>
        <time>2018-03-09T14:24:49Z</time>
      </trkpt>
      <trkpt lat="43.50992" lon="6.6225">
        <ele>71.76</ele>
        <time>2018-03-09T14:24:56Z</time>
      </trkpt>
      <trkpt lat="43.50985" lon="6.62235">
        <ele>72.72</ele>
        <time>2018-03-09T14:25:07Z</time>
      </trkpt>
      <trkpt lat="43.50976" lon="6.62224">
        <ele>74.16</ele>
        <time>2018-03-09T14:25:17Z</time>
      </trkpt>
      <trkpt lat="43.50969" lon="6.62215">
        <ele>74.64</ele>
        <time>2018-03-09T14:25:25Z</time>
      </trkpt>
      <trkpt lat="43.50965" lon="6.6221">
        <ele>75.12</ele>
        <time>2018-03-09T14:25:29Z</time>
      </trkpt>
      <trkpt lat="43.50956" lon="6.62198">
        <ele>76.08</ele>
        <time>2018-03-09T14:25:40Z</time>
      </trkpt>
      <trkpt lat="43.50954" lon="6.62193">
        <ele>76.56</ele>
        <time>2018-03-09T14:25:44Z</time>
      </trkpt>
      <trkpt lat="43.50946" lon="6.6218">
        <ele>77.52</ele>
        <time>2018-03-09T14:25:54Z</time>
      </trkpt>
      <trkpt lat="43.50941" lon="6.62177">
        <ele>78</ele>
        <time>2018-03-09T14:26:04Z</time>
      </trkpt>
      <trkpt lat="43.50941" lon="6.62177">
        <ele>77.52</ele>
        <time>2018-03-09T14:26:22Z</time>
      </trkpt>
      <trkpt lat="43.50942" lon="6.62176">
        <ele>78</ele>
        <time>2018-03-09T14:26:42Z</time>
      </trkpt>
      <trkpt lat="43.50942" lon="6.62174">
        <ele>77.52</ele>
        <time>2018-03-09T14:26:44Z</time>
      </trkpt>
      <trkpt lat="43.50941" lon="6.62169">
        <ele>78</ele>
        <time>2018-03-09T14:26:47Z</time>
      </trkpt>
      <trkpt lat="43.50938" lon="6.62153">
        <ele>78.97</ele>
        <time>2018-03-09T14:26:58Z</time>
      </trkpt>
      <trkpt lat="43.50937" lon="6.62137">
        <ele>79.45</ele>
        <time>2018-03-09T14:27:08Z</time>
      </trkpt>
      <trkpt lat="43.50937" lon="6.62128">
        <ele>79.45</ele>
        <time>2018-03-09T14:27:13Z</time>
      </trkpt>
      <trkpt lat="43.50937" lon="6.62126">
        <ele>79.45</ele>
        <time>2018-03-09T14:27:15Z</time>
      </trkpt>
      <trkpt lat="43.50937" lon="6.62121">
        <ele>79.45</ele>
        <time>2018-03-09T14:27:25Z</time>
      </trkpt>
      <trkpt lat="43.50937" lon="6.62121">
        <ele>79.45</ele>
        <time>2018-03-09T14:27:34Z</time>
      </trkpt>
      <trkpt lat="43.50937" lon="6.62115">
        <ele>79.45</ele>
        <time>2018-03-09T14:27:38Z</time>
      </trkpt>
      <trkpt lat="43.50935" lon="6.62105">
        <ele>79.93</ele>
        <time>2018-03-09T14:27:48Z</time>
      </trkpt>
      <trkpt lat="43.50935" lon="6.62104">
        <ele>79.45</ele>
        <time>2018-03-09T14:27:52Z</time>
      </trkpt>
      <trkpt lat="43.50934" lon="6.62101">
        <ele>79.45</ele>
        <time>2018-03-09T14:27:54Z</time>
      </trkpt>
      <trkpt lat="43.50933" lon="6.62097">
        <ele>79.45</ele>
        <time>2018-03-09T14:28:01Z</time>
      </trkpt>
      <trkpt lat="43.5093" lon="6.62093">
        <ele>78.97</ele>
        <time>2018-03-09T14:28:09Z</time>
      </trkpt>
      <trkpt lat="43.50924" lon="6.6209">
        <ele>78.97</ele>
        <time>2018-03-09T14:28:20Z</time>
      </trkpt>
      <trkpt lat="43.50924" lon="6.6209">
        <ele>78.97</ele>
        <time>2018-03-09T14:28:39Z</time>
      </trkpt>
      <trkpt lat="43.50922" lon="6.62086">
        <ele>78.97</ele>
        <time>2018-03-09T14:28:47Z</time>
      </trkpt>
      <trkpt lat="43.50921" lon="6.62085">
        <ele>78.48</ele>
        <time>2018-03-09T14:28:50Z</time>
      </trkpt>
      <trkpt lat="43.50913" lon="6.62082">
        <ele>78.48</ele>
        <time>2018-03-09T14:28:58Z</time>
      </trkpt>
      <trkpt lat="43.50906" lon="6.62079">
        <ele>78.48</ele>
        <time>2018-03-09T14:29:04Z</time>
      </trkpt>
      <trkpt lat="43.50889" lon="6.62075">
        <ele>78</ele>
        <time>2018-03-09T14:29:18Z</time>
      </trkpt>
      <trkpt lat="43.50879" lon="6.6207">
        <ele>78.48</ele>
        <time>2018-03-09T14:29:27Z</time>
      </trkpt>
      <trkpt lat="43.50874" lon="6.62067">
        <ele>78</ele>
        <time>2018-03-09T14:29:31Z</time>
      </trkpt>
      <trkpt lat="43.50861" lon="6.62054">
        <ele>78</ele>
        <time>2018-03-09T14:29:43Z</time>
      </trkpt>
      <trkpt lat="43.50852" lon="6.62043">
        <ele>78</ele>
        <time>2018-03-09T14:29:52Z</time>
      </trkpt>
      <trkpt lat="43.50844" lon="6.62034">
        <ele>77.04</ele>
        <time>2018-03-09T14:30:01Z</time>
      </trkpt>
      <trkpt lat="43.50841" lon="6.62031">
        <ele>77.04</ele>
        <time>2018-03-09T14:30:04Z</time>
      </trkpt>
      <trkpt lat="43.50836" lon="6.62028">
        <ele>76.56</ele>
        <time>2018-03-09T14:30:08Z</time>
      </trkpt>
      <trkpt lat="43.50833" lon="6.62025">
        <ele>76.56</ele>
        <time>2018-03-09T14:30:12Z</time>
      </trkpt>
      <trkpt lat="43.50829" lon="6.62024">
        <ele>75.6</ele>
        <time>2018-03-09T14:30:16Z</time>
      </trkpt>
      <trkpt lat="43.50815" lon="6.62019">
        <ele>73.68</ele>
        <time>2018-03-09T14:30:28Z</time>
      </trkpt>
      <trkpt lat="43.50801" lon="6.62016">
        <ele>72.24</ele>
        <time>2018-03-09T14:30:39Z</time>
      </trkpt>
      <trkpt lat="43.50792" lon="6.62015">
        <ele>72.24</ele>
        <time>2018-03-09T14:30:45Z</time>
      </trkpt>
      <trkpt lat="43.50779" lon="6.62012">
        <ele>71.27</ele>
        <time>2018-03-09T14:30:55Z</time>
      </trkpt>
      <trkpt lat="43.50766" lon="6.62003">
        <ele>70.31</ele>
        <time>2018-03-09T14:31:07Z</time>
      </trkpt>
      <trkpt lat="43.5076" lon="6.61998">
        <ele>69.83</ele>
        <time>2018-03-09T14:31:12Z</time>
      </trkpt>
      <trkpt lat="43.5075" lon="6.61993">
        <ele>69.83</ele>
        <time>2018-03-09T14:31:20Z</time>
      </trkpt>
      <trkpt lat="43.50738" lon="6.61988">
        <ele>68.87</ele>
        <time>2018-03-09T14:31:30Z</time>
      </trkpt>
      <trkpt lat="43.50731" lon="6.61984">
        <ele>62.14</ele>
        <time>2018-03-09T14:31:37Z</time>
      </trkpt>
      <trkpt lat="43.5073" lon="6.61983">
        <ele>75.12</ele>
        <time>2018-03-09T14:31:38Z</time>
      </trkpt>
      <trkpt lat="43.50729" lon="6.61983">
        <ele>69.35</ele>
        <time>2018-03-09T14:31:39Z</time>
      </trkpt>
      <trkpt lat="43.50728" lon="6.61982">
        <ele>68.87</ele>
        <time>2018-03-09T14:31:40Z</time>
      </trkpt>
      <trkpt lat="43.50724" lon="6.61979">
        <ele>68.87</ele>
        <time>2018-03-09T14:31:43Z</time>
      </trkpt>
      <trkpt lat="43.50716" lon="6.61974">
        <ele>68.87</ele>
        <time>2018-03-09T14:31:49Z</time>
      </trkpt>
      <trkpt lat="43.50703" lon="6.61967">
        <ele>67.91</ele>
        <time>2018-03-09T14:32:00Z</time>
      </trkpt>
      <trkpt lat="43.50691" lon="6.61961">
        <ele>67.91</ele>
        <time>2018-03-09T14:32:10Z</time>
      </trkpt>
      <trkpt lat="43.50677" lon="6.61959">
        <ele>66.95</ele>
        <time>2018-03-09T14:32:21Z</time>
      </trkpt>
      <trkpt lat="43.50661" lon="6.61963">
        <ele>65.99</ele>
        <time>2018-03-09T14:32:33Z</time>
      </trkpt>
      <trkpt lat="43.50647" lon="6.6197">
        <ele>65.03</ele>
        <time>2018-03-09T14:32:45Z</time>
      </trkpt>
      <trkpt lat="43.50629" lon="6.61982">
        <ele>64.07</ele>
        <time>2018-03-09T14:33:00Z</time>
      </trkpt>
      <trkpt lat="43.50622" lon="6.61986">
        <ele>63.58</ele>
        <time>2018-03-09T14:33:05Z</time>
      </trkpt>
      <trkpt lat="43.50606" lon="6.61996">
        <ele>63.1</ele>
        <time>2018-03-09T14:33:20Z</time>
      </trkpt>
      <trkpt lat="43.50591" lon="6.62003">
        <ele>62.62</ele>
        <time>2018-03-09T14:33:32Z</time>
      </trkpt>
      <trkpt lat="43.50571" lon="6.62008">
        <ele>62.62</ele>
        <time>2018-03-09T14:33:46Z</time>
      </trkpt>
      <trkpt lat="43.50558" lon="6.62009">
        <ele>62.14</ele>
        <time>2018-03-09T14:33:55Z</time>
      </trkpt>
      <trkpt lat="43.50545" lon="6.62">
        <ele>60.7</ele>
        <time>2018-03-09T14:34:07Z</time>
      </trkpt>
      <trkpt lat="43.50541" lon="6.61996">
        <ele>60.7</ele>
        <time>2018-03-09T14:34:11Z</time>
      </trkpt>
      <trkpt lat="43.50533" lon="6.61991">
        <ele>60.22</ele>
        <time>2018-03-09T14:34:18Z</time>
      </trkpt>
      <trkpt lat="43.50518" lon="6.61978">
        <ele>59.74</ele>
        <time>2018-03-09T14:34:32Z</time>
      </trkpt>
      <trkpt lat="43.50503" lon="6.61964">
        <ele>58.78</ele>
        <time>2018-03-09T14:34:46Z</time>
      </trkpt>
      <trkpt lat="43.50487" lon="6.61942">
        <ele>58.78</ele>
        <time>2018-03-09T14:35:00Z</time>
      </trkpt>
      <trkpt lat="43.5048" lon="6.61927">
        <ele>57.34</ele>
        <time>2018-03-09T14:35:10Z</time>
      </trkpt>
      <trkpt lat="43.50477" lon="6.61919">
        <ele>56.86</ele>
        <time>2018-03-09T14:35:15Z</time>
      </trkpt>
      <trkpt lat="43.5047" lon="6.619">
        <ele>56.37</ele>
        <time>2018-03-09T14:35:26Z</time>
      </trkpt>
      <trkpt lat="43.50464" lon="6.61892">
        <ele>56.37</ele>
        <time>2018-03-09T14:35:33Z</time>
      </trkpt>
      <trkpt lat="43.50461" lon="6.61882">
        <ele>55.41</ele>
        <time>2018-03-09T14:35:41Z</time>
      </trkpt>
      <trkpt lat="43.50458" lon="6.61875">
        <ele>55.41</ele>
        <time>2018-03-09T14:35:52Z</time>
      </trkpt>
      <trkpt lat="43.50457" lon="6.61873">
        <ele>55.89</ele>
        <time>2018-03-09T14:36:02Z</time>
      </trkpt>
      <trkpt lat="43.50457" lon="6.61874">
        <ele>55.41</ele>
        <time>2018-03-09T14:36:13Z</time>
      </trkpt>
      <trkpt lat="43.50456" lon="6.6187">
        <ele>55.41</ele>
        <time>2018-03-09T14:36:20Z</time>
      </trkpt>
      <trkpt lat="43.50454" lon="6.61863">
        <ele>55.41</ele>
        <time>2018-03-09T14:36:29Z</time>
      </trkpt>
      <trkpt lat="43.50454" lon="6.61862">
        <ele>55.41</ele>
        <time>2018-03-09T14:36:38Z</time>
      </trkpt>
      <trkpt lat="43.50456" lon="6.61859">
        <ele>55.89</ele>
        <time>2018-03-09T14:36:49Z</time>
      </trkpt>
      <trkpt lat="43.50456" lon="6.61857">
        <ele>55.41</ele>
        <time>2018-03-09T14:36:57Z</time>
      </trkpt>
      <trkpt lat="43.50456" lon="6.61857">
        <ele>55.41</ele>
        <time>2018-03-09T14:36:58Z</time>
      </trkpt>
      <trkpt lat="43.50456" lon="6.61859">
        <ele>55.41</ele>
        <time>2018-03-09T14:37:00Z</time>
      </trkpt>
      <trkpt lat="43.50456" lon="6.61866">
        <ele>55.89</ele>
        <time>2018-03-09T14:37:10Z</time>
      </trkpt>
      <trkpt lat="43.50456" lon="6.61866">
        <ele>55.89</ele>
        <time>2018-03-09T14:37:22Z</time>
      </trkpt>
      <trkpt lat="43.50456" lon="6.6187">
        <ele>55.89</ele>
        <time>2018-03-09T14:37:40Z</time>
      </trkpt>
      <trkpt lat="43.50455" lon="6.61873">
        <ele>56.37</ele>
        <time>2018-03-09T14:37:48Z</time>
      </trkpt>
      <trkpt lat="43.50454" lon="6.61873">
        <ele>56.37</ele>
        <time>2018-03-09T14:37:59Z</time>
      </trkpt>
      <trkpt lat="43.50456" lon="6.61874">
        <ele>56.37</ele>
        <time>2018-03-09T14:38:13Z</time>
      </trkpt>
      <trkpt lat="43.5046" lon="6.61873">
        <ele>56.37</ele>
        <time>2018-03-09T14:38:23Z</time>
      </trkpt>
      <trkpt lat="43.50464" lon="6.61875">
        <ele>56.86</ele>
        <time>2018-03-09T14:38:32Z</time>
      </trkpt>
      <trkpt lat="43.50465" lon="6.61876">
        <ele>56.37</ele>
        <time>2018-03-09T14:38:40Z</time>
      </trkpt>
      <trkpt lat="43.50467" lon="6.61879">
        <ele>56.37</ele>
        <time>2018-03-09T14:38:49Z</time>
      </trkpt>
      <trkpt lat="43.50467" lon="6.61879">
        <ele>56.37</ele>
        <time>2018-03-09T14:38:50Z</time>
      </trkpt>
      <trkpt lat="43.50468" lon="6.61878">
        <ele>56.86</ele>
        <time>2018-03-09T14:38:52Z</time>
      </trkpt>
      <trkpt lat="43.50468" lon="6.61872">
        <ele>56.86</ele>
        <time>2018-03-09T14:39:00Z</time>
      </trkpt>
      <trkpt lat="43.50471" lon="6.61869">
        <ele>56.86</ele>
        <time>2018-03-09T14:39:10Z</time>
      </trkpt>
      <trkpt lat="43.50471" lon="6.61868">
        <ele>56.86</ele>
        <time>2018-03-09T14:39:25Z</time>
      </trkpt>
      <trkpt lat="43.50472" lon="6.61867">
        <ele>56.86</ele>
        <time>2018-03-09T14:39:30Z</time>
      </trkpt>
      <trkpt lat="43.5047" lon="6.61856">
        <ele>56.37</ele>
        <time>2018-03-09T14:39:40Z</time>
      </trkpt>
      <trkpt lat="43.50469" lon="6.61856">
        <ele>56.37</ele>
        <time>2018-03-09T14:39:49Z</time>
      </trkpt>
      <trkpt lat="43.50468" lon="6.61855">
        <ele>56.37</ele>
        <time>2018-03-09T14:40:01Z</time>
      </trkpt>
      <trkpt lat="43.50466" lon="6.61856">
        <ele>56.37</ele>
        <time>2018-03-09T14:40:10Z</time>
      </trkpt>
      <trkpt lat="43.50466" lon="6.61857">
        <ele>56.37</ele>
        <time>2018-03-09T14:40:22Z</time>
      </trkpt>
      <trkpt lat="43.50466" lon="6.61857">
        <ele>56.37</ele>
        <time>2018-03-09T14:40:39Z</time>
      </trkpt>
      <trkpt lat="43.50466" lon="6.61858">
        <ele>56.37</ele>
        <time>2018-03-09T14:40:51Z</time>
      </trkpt>
      <trkpt lat="43.50466" lon="6.61858">
        <ele>55.89</ele>
        <time>2018-03-09T14:41:08Z</time>
      </trkpt>
      <trkpt lat="43.50466" lon="6.61857">
        <ele>56.37</ele>
        <time>2018-03-09T14:41:20Z</time>
      </trkpt>
      <trkpt lat="43.50466" lon="6.61856">
        <ele>55.89</ele>
        <time>2018-03-09T14:41:34Z</time>
      </trkpt>
      <trkpt lat="43.50466" lon="6.61856">
        <ele>56.37</ele>
        <time>2018-03-09T14:41:47Z</time>
      </trkpt>
      <trkpt lat="43.50466" lon="6.61855">
        <ele>55.89</ele>
        <time>2018-03-09T14:42:01Z</time>
      </trkpt>
      <trkpt lat="43.50466" lon="6.61855">
        <ele>55.89</ele>
        <time>2018-03-09T14:42:16Z</time>
      </trkpt>
      <trkpt lat="43.50466" lon="6.61856">
        <ele>55.89</ele>
        <time>2018-03-09T14:42:33Z</time>
      </trkpt>
      <trkpt lat="43.50467" lon="6.61855">
        <ele>56.37</ele>
        <time>2018-03-09T14:42:49Z</time>
      </trkpt>
      <trkpt lat="43.50467" lon="6.6185">
        <ele>55.89</ele>
        <time>2018-03-09T14:42:58Z</time>
      </trkpt>
      <trkpt lat="43.50467" lon="6.6185">
        <ele>56.37</ele>
        <time>2018-03-09T14:43:13Z</time>
      </trkpt>
      <trkpt lat="43.50467" lon="6.61849">
        <ele>55.89</ele>
        <time>2018-03-09T14:43:32Z</time>
      </trkpt>
      <trkpt lat="43.50467" lon="6.61849">
        <ele>55.89</ele>
        <time>2018-03-09T14:43:53Z</time>
      </trkpt>
      <trkpt lat="43.50467" lon="6.61846">
        <ele>55.89</ele>
        <time>2018-03-09T14:44:09Z</time>
      </trkpt>
      <trkpt lat="43.50467" lon="6.61845">
        <ele>55.89</ele>
        <time>2018-03-09T14:44:17Z</time>
      </trkpt>
      <trkpt lat="43.50463" lon="6.61821">
        <ele>56.37</ele>
        <time>2018-03-09T14:44:29Z</time>
      </trkpt>
      <trkpt lat="43.50457" lon="6.61795">
        <ele>59.26</ele>
        <time>2018-03-09T14:44:40Z</time>
      </trkpt>
      <trkpt lat="43.50456" lon="6.61793">
        <ele>55.41</ele>
        <time>2018-03-09T14:44:41Z</time>
      </trkpt>
      <trkpt lat="43.50453" lon="6.61774">
        <ele>54.93</ele>
        <time>2018-03-09T14:44:51Z</time>
      </trkpt>
      <trkpt lat="43.50452" lon="6.61752">
        <ele>54.93</ele>
        <time>2018-03-09T14:45:02Z</time>
      </trkpt>
      <trkpt lat="43.50452" lon="6.6174">
        <ele>55.41</ele>
        <time>2018-03-09T14:45:09Z</time>
      </trkpt>
      <trkpt lat="43.50448" lon="6.6172">
        <ele>55.41</ele>
        <time>2018-03-09T14:45:21Z</time>
      </trkpt>
      <trkpt lat="43.50444" lon="6.61716">
        <ele>55.41</ele>
        <time>2018-03-09T14:45:25Z</time>
      </trkpt>
      <trkpt lat="43.50435" lon="6.61712">
        <ele>56.37</ele>
        <time>2018-03-09T14:45:33Z</time>
      </trkpt>
      <trkpt lat="43.50432" lon="6.61712">
        <ele>57.34</ele>
        <time>2018-03-09T14:45:35Z</time>
      </trkpt>
      <trkpt lat="43.50422" lon="6.61706">
        <ele>51.09</ele>
        <time>2018-03-09T14:45:44Z</time>
      </trkpt>
      <trkpt lat="43.5042" lon="6.61705">
        <ele>56.86</ele>
        <time>2018-03-09T14:45:46Z</time>
      </trkpt>
      <trkpt lat="43.50411" lon="6.61702">
        <ele>56.86</ele>
        <time>2018-03-09T14:45:54Z</time>
      </trkpt>
      <trkpt lat="43.50402" lon="6.61691">
        <ele>55.89</ele>
        <time>2018-03-09T14:46:04Z</time>
      </trkpt>
      <trkpt lat="43.50393" lon="6.61676">
        <ele>53.97</ele>
        <time>2018-03-09T14:46:16Z</time>
      </trkpt>
      <trkpt lat="43.50391" lon="6.61674">
        <ele>53.97</ele>
        <time>2018-03-09T14:46:18Z</time>
      </trkpt>
      <trkpt lat="43.50388" lon="6.61667">
        <ele>53.01</ele>
        <time>2018-03-09T14:46:24Z</time>
      </trkpt>
      <trkpt lat="43.50382" lon="6.61658">
        <ele>51.57</ele>
        <time>2018-03-09T14:46:32Z</time>
      </trkpt>
      <trkpt lat="43.50378" lon="6.61648">
        <ele>51.09</ele>
        <time>2018-03-09T14:46:43Z</time>
      </trkpt>
      <trkpt lat="43.50377" lon="6.6164">
        <ele>51.57</ele>
        <time>2018-03-09T14:46:48Z</time>
      </trkpt>
      <trkpt lat="43.50372" lon="6.61628">
        <ele>52.05</ele>
        <time>2018-03-09T14:46:58Z</time>
      </trkpt>
      <trkpt lat="43.50364" lon="6.61615">
        <ele>53.01</ele>
        <time>2018-03-09T14:47:08Z</time>
      </trkpt>
      <trkpt lat="43.50357" lon="6.61602">
        <ele>53.49</ele>
        <time>2018-03-09T14:47:18Z</time>
      </trkpt>
      <trkpt lat="43.50354" lon="6.61589">
        <ele>53.49</ele>
        <time>2018-03-09T14:47:26Z</time>
      </trkpt>
      <trkpt lat="43.50351" lon="6.61573">
        <ele>53.97</ele>
        <time>2018-03-09T14:47:35Z</time>
      </trkpt>
      <trkpt lat="43.50343" lon="6.6156">
        <ele>54.45</ele>
        <time>2018-03-09T14:47:46Z</time>
      </trkpt>
      <trkpt lat="43.50333" lon="6.61551">
        <ele>53.97</ele>
        <time>2018-03-09T14:47:56Z</time>
      </trkpt>
      <trkpt lat="43.5032" lon="6.61539">
        <ele>53.97</ele>
        <time>2018-03-09T14:48:07Z</time>
      </trkpt>
      <trkpt lat="43.50314" lon="6.61532">
        <ele>53.97</ele>
        <time>2018-03-09T14:48:13Z</time>
      </trkpt>
      <trkpt lat="43.50312" lon="6.61531">
        <ele>53.97</ele>
        <time>2018-03-09T14:48:16Z</time>
      </trkpt>
      <trkpt lat="43.50296" lon="6.61529">
        <ele>52.53</ele>
        <time>2018-03-09T14:48:29Z</time>
      </trkpt>
      <trkpt lat="43.50285" lon="6.61536">
        <ele>52.53</ele>
        <time>2018-03-09T14:48:38Z</time>
      </trkpt>
      <trkpt lat="43.50273" lon="6.61542">
        <ele>52.05</ele>
        <time>2018-03-09T14:48:48Z</time>
      </trkpt>
      <trkpt lat="43.50271" lon="6.61543">
        <ele>52.53</ele>
        <time>2018-03-09T14:48:50Z</time>
      </trkpt>
      <trkpt lat="43.50258" lon="6.61553">
        <ele>52.05</ele>
        <time>2018-03-09T14:49:00Z</time>
      </trkpt>
      <trkpt lat="43.50251" lon="6.61559">
        <ele>48.2</ele>
        <time>2018-03-09T14:49:07Z</time>
      </trkpt>
      <trkpt lat="43.50249" lon="6.61559">
        <ele>54.93</ele>
        <time>2018-03-09T14:49:08Z</time>
      </trkpt>
      <trkpt lat="43.50248" lon="6.6156">
        <ele>51.09</ele>
        <time>2018-03-09T14:49:09Z</time>
      </trkpt>
      <trkpt lat="43.50248" lon="6.61561">
        <ele>55.41</ele>
        <time>2018-03-09T14:49:10Z</time>
      </trkpt>
      <trkpt lat="43.50245" lon="6.61563">
        <ele>50.13</ele>
        <time>2018-03-09T14:49:13Z</time>
      </trkpt>
      <trkpt lat="43.50245" lon="6.61563">
        <ele>53.97</ele>
        <time>2018-03-09T14:49:14Z</time>
      </trkpt>
      <trkpt lat="43.50248" lon="6.6156">
        <ele>52.53</ele>
        <time>2018-03-09T14:49:21Z</time>
      </trkpt>
      <trkpt lat="43.50259" lon="6.61551">
        <ele>53.01</ele>
        <time>2018-03-09T14:49:31Z</time>
      </trkpt>
      <trkpt lat="43.50268" lon="6.61545">
        <ele>53.01</ele>
        <time>2018-03-09T14:49:40Z</time>
      </trkpt>
      <trkpt lat="43.50282" lon="6.61534">
        <ele>53.01</ele>
        <time>2018-03-09T14:49:53Z</time>
      </trkpt>
      <trkpt lat="43.50286" lon="6.6153">
        <ele>53.01</ele>
        <time>2018-03-09T14:49:57Z</time>
      </trkpt>
      <trkpt lat="43.50294" lon="6.61526">
        <ele>53.49</ele>
        <time>2018-03-09T14:50:05Z</time>
      </trkpt>
      <trkpt lat="43.50306" lon="6.61516">
        <ele>53.97</ele>
        <time>2018-03-09T14:50:17Z</time>
      </trkpt>
      <trkpt lat="43.5031" lon="6.61511">
        <ele>53.49</ele>
        <time>2018-03-09T14:50:22Z</time>
      </trkpt>
      <trkpt lat="43.50314" lon="6.61508">
        <ele>53.97</ele>
        <time>2018-03-09T14:50:27Z</time>
      </trkpt>
      <trkpt lat="43.50319" lon="6.61501">
        <ele>53.97</ele>
        <time>2018-03-09T14:50:35Z</time>
      </trkpt>
      <trkpt lat="43.50319" lon="6.61501">
        <ele>53.97</ele>
        <time>2018-03-09T14:50:49Z</time>
      </trkpt>
      <trkpt lat="43.50318" lon="6.61501">
        <ele>53.49</ele>
        <time>2018-03-09T14:50:59Z</time>
      </trkpt>
      <trkpt lat="43.50318" lon="6.615">
        <ele>57.34</ele>
        <time>2018-03-09T14:51:07Z</time>
      </trkpt>
      <trkpt lat="43.50318" lon="6.615">
        <ele>52.05</ele>
        <time>2018-03-09T14:51:08Z</time>
      </trkpt>
      <trkpt lat="43.50318" lon="6.61501">
        <ele>56.86</ele>
        <time>2018-03-09T14:51:09Z</time>
      </trkpt>
      <trkpt lat="43.50317" lon="6.61501">
        <ele>52.05</ele>
        <time>2018-03-09T14:51:10Z</time>
      </trkpt>
      <trkpt lat="43.50308" lon="6.61493">
        <ele>53.49</ele>
        <time>2018-03-09T14:51:22Z</time>
      </trkpt>
      <trkpt lat="43.50305" lon="6.61491">
        <ele>56.37</ele>
        <time>2018-03-09T14:51:25Z</time>
      </trkpt>
      <trkpt lat="43.50304" lon="6.6149">
        <ele>53.49</ele>
        <time>2018-03-09T14:51:26Z</time>
      </trkpt>
      <trkpt lat="43.50302" lon="6.61488">
        <ele>50.13</ele>
        <time>2018-03-09T14:51:29Z</time>
      </trkpt>
      <trkpt lat="43.50301" lon="6.61487">
        <ele>56.86</ele>
        <time>2018-03-09T14:51:30Z</time>
      </trkpt>
      <trkpt lat="43.503" lon="6.61487">
        <ele>53.49</ele>
        <time>2018-03-09T14:51:31Z</time>
      </trkpt>
      <trkpt lat="43.503" lon="6.61486">
        <ele>53.01</ele>
        <time>2018-03-09T14:51:40Z</time>
      </trkpt>
      <trkpt lat="43.50301" lon="6.61487">
        <ele>49.65</ele>
        <time>2018-03-09T14:51:45Z</time>
      </trkpt>
      <trkpt lat="43.50301" lon="6.61487">
        <ele>55.89</ele>
        <time>2018-03-09T14:51:46Z</time>
      </trkpt>
      <trkpt lat="43.50301" lon="6.61488">
        <ele>53.01</ele>
        <time>2018-03-09T14:51:51Z</time>
      </trkpt>
      <trkpt lat="43.50308" lon="6.61496">
        <ele>53.49</ele>
        <time>2018-03-09T14:52:02Z</time>
      </trkpt>
      <trkpt lat="43.50318" lon="6.61497">
        <ele>53.97</ele>
        <time>2018-03-09T14:52:12Z</time>
      </trkpt>
      <trkpt lat="43.50322" lon="6.6149">
        <ele>53.97</ele>
        <time>2018-03-09T14:52:24Z</time>
      </trkpt>
      <trkpt lat="43.50322" lon="6.61489">
        <ele>53.97</ele>
        <time>2018-03-09T14:52:25Z</time>
      </trkpt>
      <trkpt lat="43.50321" lon="6.61499">
        <ele>53.97</ele>
        <time>2018-03-09T14:52:36Z</time>
      </trkpt>
      <trkpt lat="43.50321" lon="6.61501">
        <ele>54.45</ele>
        <time>2018-03-09T14:52:49Z</time>
      </trkpt>
      <trkpt lat="43.50321" lon="6.615">
        <ele>53.97</ele>
        <time>2018-03-09T14:53:08Z</time>
      </trkpt>
      <trkpt lat="43.50321" lon="6.615">
        <ele>57.82</ele>
        <time>2018-03-09T14:53:12Z</time>
      </trkpt>
      <trkpt lat="43.50321" lon="6.615">
        <ele>54.45</ele>
        <time>2018-03-09T14:53:13Z</time>
      </trkpt>
      <trkpt lat="43.50319" lon="6.615">
        <ele>50.61</ele>
        <time>2018-03-09T14:53:26Z</time>
      </trkpt>
      <trkpt lat="43.50319" lon="6.615">
        <ele>56.37</ele>
        <time>2018-03-09T14:53:27Z</time>
      </trkpt>
      <trkpt lat="43.50319" lon="6.61501">
        <ele>55.89</ele>
        <time>2018-03-09T14:53:37Z</time>
      </trkpt>
      <trkpt lat="43.50319" lon="6.615">
        <ele>53.97</ele>
        <time>2018-03-09T14:53:51Z</time>
      </trkpt>
      <trkpt lat="43.50319" lon="6.61501">
        <ele>53.97</ele>
        <time>2018-03-09T14:53:59Z</time>
      </trkpt>
      <trkpt lat="43.50318" lon="6.615">
        <ele>54.45</ele>
        <time>2018-03-09T14:54:14Z</time>
      </trkpt>
      <trkpt lat="43.50315" lon="6.61501">
        <ele>53.97</ele>
        <time>2018-03-09T14:54:18Z</time>
      </trkpt>
      <trkpt lat="43.5031" lon="6.61498">
        <ele>53.49</ele>
        <time>2018-03-09T14:54:27Z</time>
      </trkpt>
      <trkpt lat="43.50309" lon="6.61499">
        <ele>53.49</ele>
        <time>2018-03-09T14:54:30Z</time>
      </trkpt>
      <trkpt lat="43.50315" lon="6.61497">
        <ele>53.49</ele>
        <time>2018-03-09T14:54:39Z</time>
      </trkpt>
      <trkpt lat="43.50322" lon="6.61487">
        <ele>53.97</ele>
        <time>2018-03-09T14:54:51Z</time>
      </trkpt>
      <trkpt lat="43.50322" lon="6.61489">
        <ele>53.97</ele>
        <time>2018-03-09T14:55:00Z</time>
      </trkpt>
      <trkpt lat="43.50319" lon="6.61498">
        <ele>53.97</ele>
        <time>2018-03-09T14:55:10Z</time>
      </trkpt>
      <trkpt lat="43.50318" lon="6.615">
        <ele>53.97</ele>
        <time>2018-03-09T14:55:13Z</time>
      </trkpt>
      <trkpt lat="43.50316" lon="6.615">
        <ele>53.97</ele>
        <time>2018-03-09T14:55:16Z</time>
      </trkpt>
      <trkpt lat="43.50314" lon="6.615">
        <ele>53.97</ele>
        <time>2018-03-09T14:55:26Z</time>
      </trkpt>
      <trkpt lat="43.50314" lon="6.615">
        <ele>53.97</ele>
        <time>2018-03-09T14:55:55Z</time>
      </trkpt>
      <trkpt lat="43.50312" lon="6.61498">
        <ele>53.49</ele>
        <time>2018-03-09T14:56:16Z</time>
      </trkpt>
      <trkpt lat="43.50311" lon="6.61497">
        <ele>53.49</ele>
        <time>2018-03-09T14:56:17Z</time>
      </trkpt>
      <trkpt lat="43.50306" lon="6.61495">
        <ele>53.49</ele>
        <time>2018-03-09T14:56:21Z</time>
      </trkpt>
      <trkpt lat="43.50305" lon="6.61493">
        <ele>53.01</ele>
        <time>2018-03-09T14:56:23Z</time>
      </trkpt>
      <trkpt lat="43.50301" lon="6.61489">
        <ele>53.01</ele>
        <time>2018-03-09T14:56:28Z</time>
      </trkpt>
      <trkpt lat="43.50291" lon="6.61479">
        <ele>52.53</ele>
        <time>2018-03-09T14:56:39Z</time>
      </trkpt>
      <trkpt lat="43.5029" lon="6.61477">
        <ele>52.53</ele>
        <time>2018-03-09T14:56:41Z</time>
      </trkpt>
      <trkpt lat="43.50288" lon="6.61476">
        <ele>52.53</ele>
        <time>2018-03-09T14:56:43Z</time>
      </trkpt>
      <trkpt lat="43.50278" lon="6.61467">
        <ele>51.57</ele>
        <time>2018-03-09T14:56:52Z</time>
      </trkpt>
      <trkpt lat="43.50274" lon="6.61461">
        <ele>51.57</ele>
        <time>2018-03-09T14:57:02Z</time>
      </trkpt>
      <trkpt lat="43.50273" lon="6.6146">
        <ele>51.09</ele>
        <time>2018-03-09T14:57:04Z</time>
      </trkpt>
      <trkpt lat="43.5027" lon="6.61453">
        <ele>50.61</ele>
        <time>2018-03-09T14:57:09Z</time>
      </trkpt>
      <trkpt lat="43.50266" lon="6.61448">
        <ele>51.09</ele>
        <time>2018-03-09T14:57:14Z</time>
      </trkpt>
      <trkpt lat="43.50256" lon="6.6144">
        <ele>50.61</ele>
        <time>2018-03-09T14:57:26Z</time>
      </trkpt>
      <trkpt lat="43.5025" lon="6.61434">
        <ele>50.61</ele>
        <time>2018-03-09T14:57:35Z</time>
      </trkpt>
      <trkpt lat="43.50244" lon="6.6143">
        <ele>50.61</ele>
        <time>2018-03-09T14:57:45Z</time>
      </trkpt>
      <trkpt lat="43.50244" lon="6.61429">
        <ele>50.61</ele>
        <time>2018-03-09T14:57:46Z</time>
      </trkpt>
      <trkpt lat="43.50236" lon="6.61426">
        <ele>50.61</ele>
        <time>2018-03-09T14:57:54Z</time>
      </trkpt>
      <trkpt lat="43.50226" lon="6.61421">
        <ele>50.61</ele>
        <time>2018-03-09T14:58:07Z</time>
      </trkpt>
      <trkpt lat="43.50222" lon="6.61412">
        <ele>50.61</ele>
        <time>2018-03-09T14:58:19Z</time>
      </trkpt>
      <trkpt lat="43.5022" lon="6.61411">
        <ele>50.61</ele>
        <time>2018-03-09T14:58:35Z</time>
      </trkpt>
      <trkpt lat="43.50219" lon="6.61411">
        <ele>50.13</ele>
        <time>2018-03-09T14:58:52Z</time>
      </trkpt>
      <trkpt lat="43.50218" lon="6.61411">
        <ele>49.65</ele>
        <time>2018-03-09T14:59:06Z</time>
      </trkpt>
      <trkpt lat="43.50218" lon="6.61411">
        <ele>49.65</ele>
        <time>2018-03-09T14:59:23Z</time>
      </trkpt>
      <trkpt lat="43.50218" lon="6.61411">
        <ele>50.13</ele>
        <time>2018-03-09T14:59:48Z</time>
      </trkpt>
      <trkpt lat="43.50218" lon="6.61411">
        <ele>50.13</ele>
        <time>2018-03-09T15:00:11Z</time>
      </trkpt>
      <trkpt lat="43.50216" lon="6.61412">
        <ele>50.13</ele>
        <time>2018-03-09T15:00:37Z</time>
      </trkpt>
      <trkpt lat="43.50217" lon="6.61412">
        <ele>50.13</ele>
        <time>2018-03-09T15:00:51Z</time>
      </trkpt>
      <trkpt lat="43.50218" lon="6.61417">
        <ele>50.61</ele>
        <time>2018-03-09T15:01:01Z</time>
      </trkpt>
      <trkpt lat="43.50225" lon="6.61422">
        <ele>51.09</ele>
        <time>2018-03-09T15:01:10Z</time>
      </trkpt>
      <trkpt lat="43.50227" lon="6.61422">
        <ele>51.09</ele>
        <time>2018-03-09T15:01:12Z</time>
      </trkpt>
      <trkpt lat="43.50239" lon="6.61427">
        <ele>50.61</ele>
        <time>2018-03-09T15:01:22Z</time>
      </trkpt>
      <trkpt lat="43.50245" lon="6.61426">
        <ele>50.61</ele>
        <time>2018-03-09T15:01:29Z</time>
      </trkpt>
      <trkpt lat="43.50247" lon="6.61431">
        <ele>50.61</ele>
        <time>2018-03-09T15:01:35Z</time>
      </trkpt>
      <trkpt lat="43.5025" lon="6.61433">
        <ele>50.61</ele>
        <time>2018-03-09T15:01:38Z</time>
      </trkpt>
      <trkpt lat="43.50251" lon="6.61434">
        <ele>51.09</ele>
        <time>2018-03-09T15:01:40Z</time>
      </trkpt>
      <trkpt lat="43.50257" lon="6.6144">
        <ele>51.09</ele>
        <time>2018-03-09T15:01:47Z</time>
      </trkpt>
      <trkpt lat="43.5026" lon="6.61444">
        <ele>51.09</ele>
        <time>2018-03-09T15:01:50Z</time>
      </trkpt>
      <trkpt lat="43.50263" lon="6.61446">
        <ele>51.09</ele>
        <time>2018-03-09T15:01:53Z</time>
      </trkpt>
      <trkpt lat="43.50265" lon="6.61448">
        <ele>51.09</ele>
        <time>2018-03-09T15:01:55Z</time>
      </trkpt>
      <trkpt lat="43.50271" lon="6.61458">
        <ele>51.09</ele>
        <time>2018-03-09T15:02:03Z</time>
      </trkpt>
      <trkpt lat="43.50273" lon="6.61461">
        <ele>51.57</ele>
        <time>2018-03-09T15:02:06Z</time>
      </trkpt>
      <trkpt lat="43.50279" lon="6.61469">
        <ele>52.53</ele>
        <time>2018-03-09T15:02:14Z</time>
      </trkpt>
      <trkpt lat="43.50281" lon="6.6147">
        <ele>53.01</ele>
        <time>2018-03-09T15:02:16Z</time>
      </trkpt>
      <trkpt lat="43.50285" lon="6.61472">
        <ele>52.53</ele>
        <time>2018-03-09T15:02:19Z</time>
      </trkpt>
      <trkpt lat="43.5029" lon="6.61478">
        <ele>53.01</ele>
        <time>2018-03-09T15:02:25Z</time>
      </trkpt>
      <trkpt lat="43.50301" lon="6.6149">
        <ele>53.49</ele>
        <time>2018-03-09T15:02:35Z</time>
      </trkpt>
      <trkpt lat="43.50303" lon="6.61492">
        <ele>53.01</ele>
        <time>2018-03-09T15:02:37Z</time>
      </trkpt>
      <trkpt lat="43.50307" lon="6.61494">
        <ele>53.49</ele>
        <time>2018-03-09T15:02:40Z</time>
      </trkpt>
      <trkpt lat="43.50315" lon="6.615">
        <ele>54.45</ele>
        <time>2018-03-09T15:02:50Z</time>
      </trkpt>
      <trkpt lat="43.50315" lon="6.61495">
        <ele>54.45</ele>
        <time>2018-03-09T15:02:54Z</time>
      </trkpt>
      <trkpt lat="43.50316" lon="6.61493">
        <ele>54.45</ele>
        <time>2018-03-09T15:02:56Z</time>
      </trkpt>
      <trkpt lat="43.50321" lon="6.61484">
        <ele>53.97</ele>
        <time>2018-03-09T15:03:04Z</time>
      </trkpt>
      <trkpt lat="43.50329" lon="6.61471">
        <ele>53.49</ele>
        <time>2018-03-09T15:03:14Z</time>
      </trkpt>
      <trkpt lat="43.50329" lon="6.6147">
        <ele>53.97</ele>
        <time>2018-03-09T15:03:15Z</time>
      </trkpt>
      <trkpt lat="43.50331" lon="6.61462">
        <ele>53.49</ele>
        <time>2018-03-09T15:03:20Z</time>
      </trkpt>
      <trkpt lat="43.50333" lon="6.61454">
        <ele>53.49</ele>
        <time>2018-03-09T15:03:25Z</time>
      </trkpt>
      <trkpt lat="43.50338" lon="6.61434">
        <ele>53.49</ele>
        <time>2018-03-09T15:03:35Z</time>
      </trkpt>
      <trkpt lat="43.50341" lon="6.61417">
        <ele>53.49</ele>
        <time>2018-03-09T15:03:46Z</time>
      </trkpt>
      <trkpt lat="43.50345" lon="6.61399">
        <ele>53.49</ele>
        <time>2018-03-09T15:03:58Z</time>
      </trkpt>
      <trkpt lat="43.50345" lon="6.61396">
        <ele>53.49</ele>
        <time>2018-03-09T15:04:00Z</time>
      </trkpt>
      <trkpt lat="43.5035" lon="6.61378">
        <ele>53.49</ele>
        <time>2018-03-09T15:04:12Z</time>
      </trkpt>
      <trkpt lat="43.50356" lon="6.61363">
        <ele>53.49</ele>
        <time>2018-03-09T15:04:23Z</time>
      </trkpt>
      <trkpt lat="43.50363" lon="6.61339">
        <ele>53.49</ele>
        <time>2018-03-09T15:04:37Z</time>
      </trkpt>
      <trkpt lat="43.50367" lon="6.6132">
        <ele>53.49</ele>
        <time>2018-03-09T15:04:48Z</time>
      </trkpt>
      <trkpt lat="43.50378" lon="6.61305">
        <ele>53.97</ele>
        <time>2018-03-09T15:05:02Z</time>
      </trkpt>
      <trkpt lat="43.5039" lon="6.61296">
        <ele>53.97</ele>
        <time>2018-03-09T15:05:13Z</time>
      </trkpt>
      <trkpt lat="43.50391" lon="6.61295">
        <ele>53.97</ele>
        <time>2018-03-09T15:05:14Z</time>
      </trkpt>
      <trkpt lat="43.50402" lon="6.61287">
        <ele>53.97</ele>
        <time>2018-03-09T15:05:24Z</time>
      </trkpt>
      <trkpt lat="43.50415" lon="6.61281">
        <ele>53.97</ele>
        <time>2018-03-09T15:05:33Z</time>
      </trkpt>
      <trkpt lat="43.50429" lon="6.61278">
        <ele>54.45</ele>
        <time>2018-03-09T15:05:45Z</time>
      </trkpt>
      <trkpt lat="43.50432" lon="6.61277">
        <ele>54.93</ele>
        <time>2018-03-09T15:05:48Z</time>
      </trkpt>
      <trkpt lat="43.50436" lon="6.61276">
        <ele>54.93</ele>
        <time>2018-03-09T15:05:51Z</time>
      </trkpt>
      <trkpt lat="43.50452" lon="6.61283">
        <ele>55.41</ele>
        <time>2018-03-09T15:06:03Z</time>
      </trkpt>
      <trkpt lat="43.50454" lon="6.61283">
        <ele>55.41</ele>
        <time>2018-03-09T15:06:05Z</time>
      </trkpt>
      <trkpt lat="43.50458" lon="6.61285">
        <ele>55.89</ele>
        <time>2018-03-09T15:06:09Z</time>
      </trkpt>
      <trkpt lat="43.5047" lon="6.61288">
        <ele>55.89</ele>
        <time>2018-03-09T15:06:19Z</time>
      </trkpt>
      <trkpt lat="43.50478" lon="6.61286">
        <ele>56.37</ele>
        <time>2018-03-09T15:06:25Z</time>
      </trkpt>
      <trkpt lat="43.50489" lon="6.61277">
        <ele>56.86</ele>
        <time>2018-03-09T15:06:37Z</time>
      </trkpt>
      <trkpt lat="43.50491" lon="6.61275">
        <ele>56.86</ele>
        <time>2018-03-09T15:06:41Z</time>
      </trkpt>
      <trkpt lat="43.50497" lon="6.61271">
        <ele>56.86</ele>
        <time>2018-03-09T15:06:47Z</time>
      </trkpt>
      <trkpt lat="43.50504" lon="6.61263">
        <ele>57.34</ele>
        <time>2018-03-09T15:06:55Z</time>
      </trkpt>
      <trkpt lat="43.50516" lon="6.61248">
        <ele>57.82</ele>
        <time>2018-03-09T15:07:06Z</time>
      </trkpt>
      <trkpt lat="43.50517" lon="6.61246">
        <ele>57.82</ele>
        <time>2018-03-09T15:07:08Z</time>
      </trkpt>
      <trkpt lat="43.50527" lon="6.61238">
        <ele>57.82</ele>
        <time>2018-03-09T15:07:18Z</time>
      </trkpt>
      <trkpt lat="43.50533" lon="6.61233">
        <ele>57.82</ele>
        <time>2018-03-09T15:07:25Z</time>
      </trkpt>
      <trkpt lat="43.50544" lon="6.6123">
        <ele>57.82</ele>
        <time>2018-03-09T15:07:36Z</time>
      </trkpt>
      <trkpt lat="43.50549" lon="6.61227">
        <ele>58.3</ele>
        <time>2018-03-09T15:07:47Z</time>
      </trkpt>
      <trkpt lat="43.50549" lon="6.61227">
        <ele>58.3</ele>
        <time>2018-03-09T15:07:57Z</time>
      </trkpt>
      <trkpt lat="43.5055" lon="6.61227">
        <ele>61.66</ele>
        <time>2018-03-09T15:08:06Z</time>
      </trkpt>
      <trkpt lat="43.5055" lon="6.61227">
        <ele>61.18</ele>
        <time>2018-03-09T15:08:07Z</time>
      </trkpt>
      <trkpt lat="43.50549" lon="6.61226">
        <ele>54.45</ele>
        <time>2018-03-09T15:08:08Z</time>
      </trkpt>
      <trkpt lat="43.50549" lon="6.61226">
        <ele>62.14</ele>
        <time>2018-03-09T15:08:09Z</time>
      </trkpt>
      <trkpt lat="43.5055" lon="6.61226">
        <ele>58.78</ele>
        <time>2018-03-09T15:08:10Z</time>
      </trkpt>
      <trkpt lat="43.5055" lon="6.61227">
        <ele>53.01</ele>
        <time>2018-03-09T15:08:13Z</time>
      </trkpt>
      <trkpt lat="43.5055" lon="6.61227">
        <ele>64.55</ele>
        <time>2018-03-09T15:08:14Z</time>
      </trkpt>
      <trkpt lat="43.5055" lon="6.61227">
        <ele>58.78</ele>
        <time>2018-03-09T15:08:15Z</time>
      </trkpt>
      <trkpt lat="43.50548" lon="6.61226">
        <ele>58.3</ele>
        <time>2018-03-09T15:08:28Z</time>
      </trkpt>
      <trkpt lat="43.50548" lon="6.61226">
        <ele>58.3</ele>
        <time>2018-03-09T15:08:30Z</time>
      </trkpt>
      <trkpt lat="43.50539" lon="6.61229">
        <ele>58.78</ele>
        <time>2018-03-09T15:08:41Z</time>
      </trkpt>
      <trkpt lat="43.50544" lon="6.61233">
        <ele>59.26</ele>
        <time>2018-03-09T15:08:45Z</time>
      </trkpt>
      <trkpt lat="43.50546" lon="6.61234">
        <ele>60.22</ele>
        <time>2018-03-09T15:08:48Z</time>
      </trkpt>
      <trkpt lat="43.50556" lon="6.61233">
        <ele>60.22</ele>
        <time>2018-03-09T15:08:58Z</time>
      </trkpt>
      <trkpt lat="43.50557" lon="6.61233">
        <ele>60.7</ele>
        <time>2018-03-09T15:08:59Z</time>
      </trkpt>
      <trkpt lat="43.50565" lon="6.61233">
        <ele>60.22</ele>
        <time>2018-03-09T15:09:08Z</time>
      </trkpt>
      <trkpt lat="43.50573" lon="6.61231">
        <ele>61.18</ele>
        <time>2018-03-09T15:09:16Z</time>
      </trkpt>
      <trkpt lat="43.50586" lon="6.61231">
        <ele>61.66</ele>
        <time>2018-03-09T15:09:26Z</time>
      </trkpt>
      <trkpt lat="43.50588" lon="6.61231">
        <ele>61.66</ele>
        <time>2018-03-09T15:09:28Z</time>
      </trkpt>
      <trkpt lat="43.50595" lon="6.6123">
        <ele>62.62</ele>
        <time>2018-03-09T15:09:34Z</time>
      </trkpt>
      <trkpt lat="43.50609" lon="6.61232">
        <ele>63.58</ele>
        <time>2018-03-09T15:09:45Z</time>
      </trkpt>
      <trkpt lat="43.50615" lon="6.61232">
        <ele>59.74</ele>
        <time>2018-03-09T15:09:51Z</time>
      </trkpt>
      <trkpt lat="43.50616" lon="6.61232">
        <ele>67.43</ele>
        <time>2018-03-09T15:09:52Z</time>
      </trkpt>
      <trkpt lat="43.50616" lon="6.61232">
        <ele>64.07</ele>
        <time>2018-03-09T15:09:53Z</time>
      </trkpt>
      <trkpt lat="43.50628" lon="6.61233">
        <ele>65.03</ele>
        <time>2018-03-09T15:10:03Z</time>
      </trkpt>
      <trkpt lat="43.5064" lon="6.61233">
        <ele>65.51</ele>
        <time>2018-03-09T15:10:13Z</time>
      </trkpt>
      <trkpt lat="43.50643" lon="6.61232">
        <ele>65.51</ele>
        <time>2018-03-09T15:10:16Z</time>
      </trkpt>
      <trkpt lat="43.50649" lon="6.61231">
        <ele>66.47</ele>
        <time>2018-03-09T15:10:22Z</time>
      </trkpt>
      <trkpt lat="43.50657" lon="6.61226">
        <ele>66.95</ele>
        <time>2018-03-09T15:10:29Z</time>
      </trkpt>
      <trkpt lat="43.50669" lon="6.61222">
        <ele>67.43</ele>
        <time>2018-03-09T15:10:37Z</time>
      </trkpt>
      <trkpt lat="43.50673" lon="6.6122">
        <ele>67.43</ele>
        <time>2018-03-09T15:10:40Z</time>
      </trkpt>
      <trkpt lat="43.50677" lon="6.6122">
        <ele>67.91</ele>
        <time>2018-03-09T15:10:43Z</time>
      </trkpt>
      <trkpt lat="43.50688" lon="6.61212">
        <ele>67.91</ele>
        <time>2018-03-09T15:10:52Z</time>
      </trkpt>
      <trkpt lat="43.50691" lon="6.6121">
        <ele>68.39</ele>
        <time>2018-03-09T15:10:55Z</time>
      </trkpt>
      <trkpt lat="43.50706" lon="6.61201">
        <ele>69.35</ele>
        <time>2018-03-09T15:11:07Z</time>
      </trkpt>
      <trkpt lat="43.50712" lon="6.61197">
        <ele>69.83</ele>
        <time>2018-03-09T15:11:14Z</time>
      </trkpt>
      <trkpt lat="43.50716" lon="6.61192">
        <ele>69.35</ele>
        <time>2018-03-09T15:11:19Z</time>
      </trkpt>
      <trkpt lat="43.50719" lon="6.61189">
        <ele>68.87</ele>
        <time>2018-03-09T15:11:23Z</time>
      </trkpt>
      <trkpt lat="43.50721" lon="6.61188">
        <ele>68.39</ele>
        <time>2018-03-09T15:11:25Z</time>
      </trkpt>
      <trkpt lat="43.50728" lon="6.61183">
        <ele>67.43</ele>
        <time>2018-03-09T15:11:32Z</time>
      </trkpt>
      <trkpt lat="43.50731" lon="6.61183">
        <ele>67.43</ele>
        <time>2018-03-09T15:11:35Z</time>
      </trkpt>
      <trkpt lat="43.50745" lon="6.61177">
        <ele>66.95</ele>
        <time>2018-03-09T15:11:47Z</time>
      </trkpt>
      <trkpt lat="43.50755" lon="6.61174">
        <ele>68.39</ele>
        <time>2018-03-09T15:11:55Z</time>
      </trkpt>
      <trkpt lat="43.50761" lon="6.61176">
        <ele>69.35</ele>
        <time>2018-03-09T15:12:01Z</time>
      </trkpt>
      <trkpt lat="43.50773" lon="6.61171">
        <ele>72.72</ele>
        <time>2018-03-09T15:12:13Z</time>
      </trkpt>
      <trkpt lat="43.50774" lon="6.61171">
        <ele>72.72</ele>
        <time>2018-03-09T15:12:14Z</time>
      </trkpt>
      <trkpt lat="43.50787" lon="6.61164">
        <ele>74.64</ele>
        <time>2018-03-09T15:12:26Z</time>
      </trkpt>
      <trkpt lat="43.50799" lon="6.61159">
        <ele>75.12</ele>
        <time>2018-03-09T15:12:36Z</time>
      </trkpt>
      <trkpt lat="43.508" lon="6.61159">
        <ele>75.12</ele>
        <time>2018-03-09T15:12:37Z</time>
      </trkpt>
      <trkpt lat="43.50811" lon="6.61152">
        <ele>75.6</ele>
        <time>2018-03-09T15:12:49Z</time>
      </trkpt>
      <trkpt lat="43.50818" lon="6.61151">
        <ele>75.6</ele>
        <time>2018-03-09T15:12:58Z</time>
      </trkpt>
      <trkpt lat="43.50819" lon="6.61152">
        <ele>76.08</ele>
        <time>2018-03-09T15:13:07Z</time>
      </trkpt>
      <trkpt lat="43.50819" lon="6.61151">
        <ele>76.56</ele>
        <time>2018-03-09T15:13:20Z</time>
      </trkpt>
      <trkpt lat="43.50819" lon="6.61151">
        <ele>76.56</ele>
        <time>2018-03-09T15:13:35Z</time>
      </trkpt>
      <trkpt lat="43.50819" lon="6.61151">
        <ele>76.56</ele>
        <time>2018-03-09T15:13:55Z</time>
      </trkpt>
      <trkpt lat="43.50817" lon="6.61149">
        <ele>76.08</ele>
        <time>2018-03-09T15:14:05Z</time>
      </trkpt>
      <trkpt lat="43.50817" lon="6.6115">
        <ele>76.56</ele>
        <time>2018-03-09T15:14:23Z</time>
      </trkpt>
      <trkpt lat="43.50817" lon="6.61149">
        <ele>76.56</ele>
        <time>2018-03-09T15:14:24Z</time>
      </trkpt>
      <trkpt lat="43.50815" lon="6.61146">
        <ele>76.08</ele>
        <time>2018-03-09T15:14:29Z</time>
      </trkpt>
      <trkpt lat="43.50817" lon="6.61136">
        <ele>75.6</ele>
        <time>2018-03-09T15:14:39Z</time>
      </trkpt>
      <trkpt lat="43.50816" lon="6.61135">
        <ele>75.12</ele>
        <time>2018-03-09T15:14:45Z</time>
      </trkpt>
      <trkpt lat="43.50815" lon="6.6113">
        <ele>76.08</ele>
        <time>2018-03-09T15:14:55Z</time>
      </trkpt>
      <trkpt lat="43.50815" lon="6.61133">
        <ele>76.08</ele>
        <time>2018-03-09T15:15:08Z</time>
      </trkpt>
      <trkpt lat="43.50817" lon="6.61134">
        <ele>75.12</ele>
        <time>2018-03-09T15:15:17Z</time>
      </trkpt>
      <trkpt lat="43.50822" lon="6.61126">
        <ele>73.2</ele>
        <time>2018-03-09T15:15:26Z</time>
      </trkpt>
      <trkpt lat="43.50823" lon="6.61124">
        <ele>72.72</ele>
        <time>2018-03-09T15:15:29Z</time>
      </trkpt>
      <trkpt lat="43.50827" lon="6.61118">
        <ele>70.79</ele>
        <time>2018-03-09T15:15:39Z</time>
      </trkpt>
      <trkpt lat="43.5083" lon="6.61113">
        <ele>68.87</ele>
        <time>2018-03-09T15:15:47Z</time>
      </trkpt>
      <trkpt lat="43.50832" lon="6.61111">
        <ele>68.87</ele>
        <time>2018-03-09T15:15:49Z</time>
      </trkpt>
      <trkpt lat="43.50834" lon="6.61108">
        <ele>67.91</ele>
        <time>2018-03-09T15:15:52Z</time>
      </trkpt>
      <trkpt lat="43.50834" lon="6.61103">
        <ele>67.91</ele>
        <time>2018-03-09T15:15:55Z</time>
      </trkpt>
      <trkpt lat="43.50836" lon="6.61098">
        <ele>66.95</ele>
        <time>2018-03-09T15:16:00Z</time>
      </trkpt>
      <trkpt lat="43.5084" lon="6.61098">
        <ele>66.95</ele>
        <time>2018-03-09T15:16:04Z</time>
      </trkpt>
      <trkpt lat="43.50841" lon="6.61089">
        <ele>65.51</ele>
        <time>2018-03-09T15:16:14Z</time>
      </trkpt>
      <trkpt lat="43.50842" lon="6.6109">
        <ele>65.51</ele>
        <time>2018-03-09T15:16:23Z</time>
      </trkpt>
      <trkpt lat="43.50843" lon="6.61091">
        <ele>65.99</ele>
        <time>2018-03-09T15:16:24Z</time>
      </trkpt>
      <trkpt lat="43.50844" lon="6.61091">
        <ele>65.51</ele>
        <time>2018-03-09T15:16:26Z</time>
      </trkpt>
      <trkpt lat="43.50851" lon="6.61101">
        <ele>65.99</ele>
        <time>2018-03-09T15:16:38Z</time>
      </trkpt>
      <trkpt lat="43.50855" lon="6.61106">
        <ele>65.99</ele>
        <time>2018-03-09T15:16:47Z</time>
      </trkpt>
      <trkpt lat="43.50859" lon="6.61111">
        <ele>65.99</ele>
        <time>2018-03-09T15:16:53Z</time>
      </trkpt>
      <trkpt lat="43.5087" lon="6.61123">
        <ele>66.47</ele>
        <time>2018-03-09T15:17:06Z</time>
      </trkpt>
      <trkpt lat="43.50875" lon="6.61129">
        <ele>66.47</ele>
        <time>2018-03-09T15:17:12Z</time>
      </trkpt>
      <trkpt lat="43.50883" lon="6.61139">
        <ele>66.95</ele>
        <time>2018-03-09T15:17:22Z</time>
      </trkpt>
      <trkpt lat="43.50892" lon="6.6115">
        <ele>67.43</ele>
        <time>2018-03-09T15:17:33Z</time>
      </trkpt>
      <trkpt lat="43.50903" lon="6.61164">
        <ele>67.91</ele>
        <time>2018-03-09T15:17:45Z</time>
      </trkpt>
      <trkpt lat="43.50909" lon="6.61175">
        <ele>67.91</ele>
        <time>2018-03-09T15:17:55Z</time>
      </trkpt>
      <trkpt lat="43.50914" lon="6.61182">
        <ele>68.87</ele>
        <time>2018-03-09T15:18:01Z</time>
      </trkpt>
      <trkpt lat="43.50919" lon="6.61188">
        <ele>69.35</ele>
        <time>2018-03-09T15:18:13Z</time>
      </trkpt>
      <trkpt lat="43.5092" lon="6.61188">
        <ele>69.83</ele>
        <time>2018-03-09T15:18:28Z</time>
      </trkpt>
      <trkpt lat="43.50921" lon="6.61189">
        <ele>69.83</ele>
        <time>2018-03-09T15:18:31Z</time>
      </trkpt>
      <trkpt lat="43.50933" lon="6.612">
        <ele>70.79</ele>
        <time>2018-03-09T15:18:43Z</time>
      </trkpt>
      <trkpt lat="43.50943" lon="6.61211">
        <ele>72.24</ele>
        <time>2018-03-09T15:18:54Z</time>
      </trkpt>
      <trkpt lat="43.50946" lon="6.61215">
        <ele>72.24</ele>
        <time>2018-03-09T15:18:58Z</time>
      </trkpt>
      <trkpt lat="43.50951" lon="6.6122">
        <ele>72.72</ele>
        <time>2018-03-09T15:19:03Z</time>
      </trkpt>
      <trkpt lat="43.50956" lon="6.61225">
        <ele>72.72</ele>
        <time>2018-03-09T15:19:09Z</time>
      </trkpt>
      <trkpt lat="43.50967" lon="6.61231">
        <ele>73.68</ele>
        <time>2018-03-09T15:19:21Z</time>
      </trkpt>
      <trkpt lat="43.50968" lon="6.61231">
        <ele>73.68</ele>
        <time>2018-03-09T15:19:22Z</time>
      </trkpt>
      <trkpt lat="43.5097" lon="6.6123">
        <ele>75.12</ele>
        <time>2018-03-09T15:19:24Z</time>
      </trkpt>
      <trkpt lat="43.50972" lon="6.6123">
        <ele>73.2</ele>
        <time>2018-03-09T15:19:25Z</time>
      </trkpt>
      <trkpt lat="43.50977" lon="6.61209">
        <ele>72.72</ele>
        <time>2018-03-09T15:19:37Z</time>
      </trkpt>
      <trkpt lat="43.50977" lon="6.61203">
        <ele>72.24</ele>
        <time>2018-03-09T15:19:40Z</time>
      </trkpt>
      <trkpt lat="43.50979" lon="6.61195">
        <ele>72.24</ele>
        <time>2018-03-09T15:19:45Z</time>
      </trkpt>
      <trkpt lat="43.50981" lon="6.61184">
        <ele>71.76</ele>
        <time>2018-03-09T15:19:52Z</time>
      </trkpt>
      <trkpt lat="43.50982" lon="6.6117">
        <ele>71.27</ele>
        <time>2018-03-09T15:20:00Z</time>
      </trkpt>
      <trkpt lat="43.50986" lon="6.61145">
        <ele>71.27</ele>
        <time>2018-03-09T15:20:13Z</time>
      </trkpt>
      <trkpt lat="43.50988" lon="6.61129">
        <ele>70.79</ele>
        <time>2018-03-09T15:20:23Z</time>
      </trkpt>
      <trkpt lat="43.50989" lon="6.61111">
        <ele>70.31</ele>
        <time>2018-03-09T15:20:34Z</time>
      </trkpt>
      <trkpt lat="43.50989" lon="6.61106">
        <ele>70.79</ele>
        <time>2018-03-09T15:20:37Z</time>
      </trkpt>
      <trkpt lat="43.50988" lon="6.61082">
        <ele>71.76</ele>
        <time>2018-03-09T15:20:49Z</time>
      </trkpt>
      <trkpt lat="43.50986" lon="6.61059">
        <ele>70.79</ele>
        <time>2018-03-09T15:21:01Z</time>
      </trkpt>
      <trkpt lat="43.50984" lon="6.61042">
        <ele>70.31</ele>
        <time>2018-03-09T15:21:10Z</time>
      </trkpt>
      <trkpt lat="43.50983" lon="6.61037">
        <ele>70.31</ele>
        <time>2018-03-09T15:21:13Z</time>
      </trkpt>
      <trkpt lat="43.50982" lon="6.6103">
        <ele>70.31</ele>
        <time>2018-03-09T15:21:17Z</time>
      </trkpt>
      <trkpt lat="43.50981" lon="6.61021">
        <ele>70.31</ele>
        <time>2018-03-09T15:21:22Z</time>
      </trkpt>
      <trkpt lat="43.50978" lon="6.60995">
        <ele>69.83</ele>
        <time>2018-03-09T15:21:35Z</time>
      </trkpt>
      <trkpt lat="43.50976" lon="6.60976">
        <ele>69.83</ele>
        <time>2018-03-09T15:21:45Z</time>
      </trkpt>
      <trkpt lat="43.50975" lon="6.60962">
        <ele>69.83</ele>
        <time>2018-03-09T15:21:53Z</time>
      </trkpt>
      <trkpt lat="43.50976" lon="6.60955">
        <ele>69.35</ele>
        <time>2018-03-09T15:21:57Z</time>
      </trkpt>
      <trkpt lat="43.50973" lon="6.60932">
        <ele>69.35</ele>
        <time>2018-03-09T15:22:09Z</time>
      </trkpt>
      <trkpt lat="43.50974" lon="6.60924">
        <ele>68.87</ele>
        <time>2018-03-09T15:22:13Z</time>
      </trkpt>
      <trkpt lat="43.5097" lon="6.60906">
        <ele>68.87</ele>
        <time>2018-03-09T15:22:24Z</time>
      </trkpt>
      <trkpt lat="43.50967" lon="6.60886">
        <ele>68.87</ele>
        <time>2018-03-09T15:22:36Z</time>
      </trkpt>
      <trkpt lat="43.50966" lon="6.60884">
        <ele>68.87</ele>
        <time>2018-03-09T15:22:37Z</time>
      </trkpt>
      <trkpt lat="43.50965" lon="6.60879">
        <ele>68.87</ele>
        <time>2018-03-09T15:22:40Z</time>
      </trkpt>
      <trkpt lat="43.50964" lon="6.60858">
        <ele>68.87</ele>
        <time>2018-03-09T15:22:51Z</time>
      </trkpt>
      <trkpt lat="43.50957" lon="6.60828">
        <ele>68.39</ele>
        <time>2018-03-09T15:23:05Z</time>
      </trkpt>
      <trkpt lat="43.50947" lon="6.6081">
        <ele>68.39</ele>
        <time>2018-03-09T15:23:17Z</time>
      </trkpt>
      <trkpt lat="43.50935" lon="6.60792">
        <ele>68.39</ele>
        <time>2018-03-09T15:23:30Z</time>
      </trkpt>
      <trkpt lat="43.50931" lon="6.60784">
        <ele>67.91</ele>
        <time>2018-03-09T15:23:35Z</time>
      </trkpt>
      <trkpt lat="43.50929" lon="6.60777">
        <ele>67.91</ele>
        <time>2018-03-09T15:23:39Z</time>
      </trkpt>
      <trkpt lat="43.50926" lon="6.60766">
        <ele>68.39</ele>
        <time>2018-03-09T15:23:47Z</time>
      </trkpt>
      <trkpt lat="43.50927" lon="6.60747">
        <ele>68.87</ele>
        <time>2018-03-09T15:23:57Z</time>
      </trkpt>
      <trkpt lat="43.5093" lon="6.60729">
        <ele>68.87</ele>
        <time>2018-03-09T15:24:07Z</time>
      </trkpt>
      <trkpt lat="43.50932" lon="6.60711">
        <ele>69.83</ele>
        <time>2018-03-09T15:24:17Z</time>
      </trkpt>
      <trkpt lat="43.50933" lon="6.60708">
        <ele>70.31</ele>
        <time>2018-03-09T15:24:19Z</time>
      </trkpt>
      <trkpt lat="43.50936" lon="6.60687">
        <ele>69.83</ele>
        <time>2018-03-09T15:24:31Z</time>
      </trkpt>
      <trkpt lat="43.50938" lon="6.60665">
        <ele>70.79</ele>
        <time>2018-03-09T15:24:43Z</time>
      </trkpt>
      <trkpt lat="43.5094" lon="6.60647">
        <ele>71.27</ele>
        <time>2018-03-09T15:24:52Z</time>
      </trkpt>
      <trkpt lat="43.50941" lon="6.60637">
        <ele>70.79</ele>
        <time>2018-03-09T15:24:57Z</time>
      </trkpt>
      <trkpt lat="43.50942" lon="6.60625">
        <ele>71.27</ele>
        <time>2018-03-09T15:25:03Z</time>
      </trkpt>
      <trkpt lat="43.50943" lon="6.60603">
        <ele>71.27</ele>
        <time>2018-03-09T15:25:16Z</time>
      </trkpt>
      <trkpt lat="43.50943" lon="6.60581">
        <ele>71.76</ele>
        <time>2018-03-09T15:25:27Z</time>
      </trkpt>
      <trkpt lat="43.50942" lon="6.60559">
        <ele>72.24</ele>
        <time>2018-03-09T15:25:38Z</time>
      </trkpt>
      <trkpt lat="43.5094" lon="6.60532">
        <ele>72.72</ele>
        <time>2018-03-09T15:25:52Z</time>
      </trkpt>
      <trkpt lat="43.50939" lon="6.60514">
        <ele>73.2</ele>
        <time>2018-03-09T15:26:01Z</time>
      </trkpt>
      <trkpt lat="43.50938" lon="6.60498">
        <ele>73.68</ele>
        <time>2018-03-09T15:26:10Z</time>
      </trkpt>
      <trkpt lat="43.50936" lon="6.60475">
        <ele>73.68</ele>
        <time>2018-03-09T15:26:22Z</time>
      </trkpt>
      <trkpt lat="43.50935" lon="6.60466">
        <ele>73.68</ele>
        <time>2018-03-09T15:26:27Z</time>
      </trkpt>
      <trkpt lat="43.50935" lon="6.60458">
        <ele>74.16</ele>
        <time>2018-03-09T15:26:30Z</time>
      </trkpt>
      <trkpt lat="43.50934" lon="6.60443">
        <ele>74.16</ele>
        <time>2018-03-09T15:26:38Z</time>
      </trkpt>
      <trkpt lat="43.50933" lon="6.60437">
        <ele>74.64</ele>
        <time>2018-03-09T15:26:41Z</time>
      </trkpt>
      <trkpt lat="43.50932" lon="6.6042">
        <ele>74.64</ele>
        <time>2018-03-09T15:26:51Z</time>
      </trkpt>
      <trkpt lat="43.50931" lon="6.60409">
        <ele>74.64</ele>
        <time>2018-03-09T15:26:56Z</time>
      </trkpt>
      <trkpt lat="43.50931" lon="6.60402">
        <ele>75.12</ele>
        <time>2018-03-09T15:27:00Z</time>
      </trkpt>
      <trkpt lat="43.5093" lon="6.60393">
        <ele>75.12</ele>
        <time>2018-03-09T15:27:04Z</time>
      </trkpt>
      <trkpt lat="43.50929" lon="6.60377">
        <ele>75.6</ele>
        <time>2018-03-09T15:27:12Z</time>
      </trkpt>
      <trkpt lat="43.50925" lon="6.60365">
        <ele>76.08</ele>
        <time>2018-03-09T15:27:19Z</time>
      </trkpt>
      <trkpt lat="43.50923" lon="6.60362">
        <ele>76.08</ele>
        <time>2018-03-09T15:27:21Z</time>
      </trkpt>
      <trkpt lat="43.50909" lon="6.60346">
        <ele>76.08</ele>
        <time>2018-03-09T15:27:33Z</time>
      </trkpt>
      <trkpt lat="43.50908" lon="6.60318">
        <ele>75.6</ele>
        <time>2018-03-09T15:27:46Z</time>
      </trkpt>
      <trkpt lat="43.50908" lon="6.60316">
        <ele>75.6</ele>
        <time>2018-03-09T15:27:47Z</time>
      </trkpt>
      <trkpt lat="43.50907" lon="6.60299">
        <ele>76.08</ele>
        <time>2018-03-09T15:27:56Z</time>
      </trkpt>
      <trkpt lat="43.50906" lon="6.60295">
        <ele>76.08</ele>
        <time>2018-03-09T15:27:58Z</time>
      </trkpt>
      <trkpt lat="43.50904" lon="6.60287">
        <ele>76.08</ele>
        <time>2018-03-09T15:28:07Z</time>
      </trkpt>
      <trkpt lat="43.50904" lon="6.60286">
        <ele>75.6</ele>
        <time>2018-03-09T15:28:08Z</time>
      </trkpt>
      <trkpt lat="43.50903" lon="6.60283">
        <ele>75.6</ele>
        <time>2018-03-09T15:28:10Z</time>
      </trkpt>
      <trkpt lat="43.50896" lon="6.60264">
        <ele>75.6</ele>
        <time>2018-03-09T15:28:21Z</time>
      </trkpt>
      <trkpt lat="43.50894" lon="6.60258">
        <ele>75.6</ele>
        <time>2018-03-09T15:28:25Z</time>
      </trkpt>
      <trkpt lat="43.50884" lon="6.60245">
        <ele>75.12</ele>
        <time>2018-03-09T15:28:35Z</time>
      </trkpt>
      <trkpt lat="43.50879" lon="6.6024">
        <ele>75.6</ele>
        <time>2018-03-09T15:28:40Z</time>
      </trkpt>
      <trkpt lat="43.50859" lon="6.60227">
        <ele>75.6</ele>
        <time>2018-03-09T15:28:54Z</time>
      </trkpt>
      <trkpt lat="43.50842" lon="6.60218">
        <ele>75.12</ele>
        <time>2018-03-09T15:29:07Z</time>
      </trkpt>
      <trkpt lat="43.50837" lon="6.60216">
        <ele>74.16</ele>
        <time>2018-03-09T15:29:11Z</time>
      </trkpt>
      <trkpt lat="43.50818" lon="6.60206">
        <ele>74.16</ele>
        <time>2018-03-09T15:29:26Z</time>
      </trkpt>
      <trkpt lat="43.50802" lon="6.60196">
        <ele>73.68</ele>
        <time>2018-03-09T15:29:37Z</time>
      </trkpt>
      <trkpt lat="43.50784" lon="6.60183">
        <ele>73.2</ele>
        <time>2018-03-09T15:29:51Z</time>
      </trkpt>
      <trkpt lat="43.5077" lon="6.60168">
        <ele>72.72</ele>
        <time>2018-03-09T15:30:04Z</time>
      </trkpt>
      <trkpt lat="43.50768" lon="6.60166">
        <ele>72.72</ele>
        <time>2018-03-09T15:30:06Z</time>
      </trkpt>
      <trkpt lat="43.50759" lon="6.60151">
        <ele>73.2</ele>
        <time>2018-03-09T15:30:17Z</time>
      </trkpt>
      <trkpt lat="43.50751" lon="6.6014">
        <ele>72.72</ele>
        <time>2018-03-09T15:30:26Z</time>
      </trkpt>
      <trkpt lat="43.50742" lon="6.60121">
        <ele>72.24</ele>
        <time>2018-03-09T15:30:37Z</time>
      </trkpt>
      <trkpt lat="43.50735" lon="6.601">
        <ele>71.76</ele>
        <time>2018-03-09T15:30:49Z</time>
      </trkpt>
      <trkpt lat="43.50732" lon="6.60087">
        <ele>71.76</ele>
        <time>2018-03-09T15:30:56Z</time>
      </trkpt>
      <trkpt lat="43.50731" lon="6.60076">
        <ele>71.76</ele>
        <time>2018-03-09T15:31:02Z</time>
      </trkpt>
      <trkpt lat="43.50728" lon="6.60055">
        <ele>70.79</ele>
        <time>2018-03-09T15:31:14Z</time>
      </trkpt>
      <trkpt lat="43.50727" lon="6.60044">
        <ele>70.79</ele>
        <time>2018-03-09T15:31:20Z</time>
      </trkpt>
      <trkpt lat="43.50732" lon="6.60027">
        <ele>70.31</ele>
        <time>2018-03-09T15:31:29Z</time>
      </trkpt>
      <trkpt lat="43.50734" lon="6.60022">
        <ele>70.79</ele>
        <time>2018-03-09T15:31:32Z</time>
      </trkpt>
      <trkpt lat="43.50734" lon="6.60018">
        <ele>70.31</ele>
        <time>2018-03-09T15:31:34Z</time>
      </trkpt>
      <trkpt lat="43.50738" lon="6.60008">
        <ele>69.83</ele>
        <time>2018-03-09T15:31:40Z</time>
      </trkpt>
      <trkpt lat="43.50739" lon="6.60005">
        <ele>69.83</ele>
        <time>2018-03-09T15:31:42Z</time>
      </trkpt>
      <trkpt lat="43.50744" lon="6.59989">
        <ele>69.35</ele>
        <time>2018-03-09T15:31:50Z</time>
      </trkpt>
      <trkpt lat="43.50746" lon="6.59989">
        <ele>69.83</ele>
        <time>2018-03-09T15:31:52Z</time>
      </trkpt>
      <trkpt lat="43.50748" lon="6.59987">
        <ele>69.83</ele>
        <time>2018-03-09T15:31:58Z</time>
      </trkpt>
      <trkpt lat="43.5075" lon="6.59982">
        <ele>69.83</ele>
        <time>2018-03-09T15:32:01Z</time>
      </trkpt>
      <trkpt lat="43.5075" lon="6.59974">
        <ele>69.35</ele>
        <time>2018-03-09T15:32:12Z</time>
      </trkpt>
      <trkpt lat="43.5075" lon="6.59973">
        <ele>69.83</ele>
        <time>2018-03-09T15:32:23Z</time>
      </trkpt>
      <trkpt lat="43.5075" lon="6.59973">
        <ele>69.83</ele>
        <time>2018-03-09T15:32:39Z</time>
      </trkpt>
      <trkpt lat="43.50749" lon="6.59972">
        <ele>69.35</ele>
        <time>2018-03-09T15:32:52Z</time>
      </trkpt>
      <trkpt lat="43.5075" lon="6.59971">
        <ele>69.83</ele>
        <time>2018-03-09T15:33:06Z</time>
      </trkpt>
      <trkpt lat="43.5075" lon="6.59972">
        <ele>69.83</ele>
        <time>2018-03-09T15:33:15Z</time>
      </trkpt>
      <trkpt lat="43.5075" lon="6.59972">
        <ele>69.83</ele>
        <time>2018-03-09T15:33:28Z</time>
      </trkpt>
      <trkpt lat="43.50751" lon="6.59973">
        <ele>68.87</ele>
        <time>2018-03-09T15:33:38Z</time>
      </trkpt>
      <trkpt lat="43.50749" lon="6.59971">
        <ele>69.83</ele>
        <time>2018-03-09T15:33:54Z</time>
      </trkpt>
      <trkpt lat="43.5075" lon="6.5997">
        <ele>69.83</ele>
        <time>2018-03-09T15:34:09Z</time>
      </trkpt>
      <trkpt lat="43.5075" lon="6.5997">
        <ele>69.35</ele>
        <time>2018-03-09T15:34:19Z</time>
      </trkpt>
      <trkpt lat="43.5075" lon="6.59972">
        <ele>69.35</ele>
        <time>2018-03-09T15:34:35Z</time>
      </trkpt>
      <trkpt lat="43.5075" lon="6.59979">
        <ele>70.79</ele>
        <time>2018-03-09T15:34:51Z</time>
      </trkpt>
      <trkpt lat="43.50748" lon="6.59976">
        <ele>69.35</ele>
        <time>2018-03-09T15:35:01Z</time>
      </trkpt>
      <trkpt lat="43.50747" lon="6.59975">
        <ele>69.35</ele>
        <time>2018-03-09T15:35:13Z</time>
      </trkpt>
      <trkpt lat="43.50748" lon="6.59973">
        <ele>69.35</ele>
        <time>2018-03-09T15:35:30Z</time>
      </trkpt>
      <trkpt lat="43.50748" lon="6.59973">
        <ele>69.35</ele>
        <time>2018-03-09T15:35:43Z</time>
      </trkpt>
      <trkpt lat="43.50748" lon="6.59975">
        <ele>68.87</ele>
        <time>2018-03-09T15:35:59Z</time>
      </trkpt>
      <trkpt lat="43.50748" lon="6.59975">
        <ele>68.87</ele>
        <time>2018-03-09T15:36:14Z</time>
      </trkpt>
      <trkpt lat="43.50749" lon="6.59975">
        <ele>68.87</ele>
        <time>2018-03-09T15:36:32Z</time>
      </trkpt>
      <trkpt lat="43.50749" lon="6.59974">
        <ele>67.43</ele>
        <time>2018-03-09T15:36:46Z</time>
      </trkpt>
      <trkpt lat="43.50749" lon="6.59974">
        <ele>70.79</ele>
        <time>2018-03-09T15:36:47Z</time>
      </trkpt>
      <trkpt lat="43.50749" lon="6.59974">
        <ele>67.43</ele>
        <time>2018-03-09T15:36:50Z</time>
      </trkpt>
      <trkpt lat="43.50749" lon="6.59974">
        <ele>71.27</ele>
        <time>2018-03-09T15:36:51Z</time>
      </trkpt>
      <trkpt lat="43.50749" lon="6.59974">
        <ele>70.31</ele>
        <time>2018-03-09T15:36:52Z</time>
      </trkpt>
      <trkpt lat="43.50749" lon="6.59975">
        <ele>67.91</ele>
        <time>2018-03-09T15:37:02Z</time>
      </trkpt>
    </trkseg>
  </trk>
</gpx>